Time,TemperatureF,DewpointF,PressureIn,WindDirection,WindDirectionDegrees,WindSpeedMPH,WindSpeedGustMPH,Humidity,HourlyPrecipIn,Conditions,Clouds,dailyrainin,SoftwareType,DateUTC
2013-01-09 00:00:00,48.2,46.6,-100.00,North,355,5.0,13.0,94,0.03,,,0.57,meteohub,2013-01-09 06:00:00,
2013-01-09 00:03:00,48.2,46.6,-100.00,North,5,11.0,13.0,94,0.03,,,0.57,meteohub,2013-01-09 06:03:00,
2013-01-09 00:04:00,48.0,46.4,-100.00,North,0,6.0,13.0,94,0.03,,,0.57,meteohub,2013-01-09 06:04:00,
2013-01-09 00:06:00,48.0,46.4,-100.00,North,5,6.0,14.0,94,0.04,,,0.01,meteohub,2013-01-09 06:06:00,
2013-01-09 00:08:00,48.0,46.4,-100.00,North,5,7.0,14.0,94,0.04,,,0.01,meteohub,2013-01-09 06:08:00,
2013-01-09 00:09:00,48.0,46.6,-100.00,North,5,6.0,14.0,95,0.04,,,0.01,meteohub,2013-01-09 06:09:00,
2013-01-09 00:11:00,48.0,46.6,-100.00,North,0,6.0,14.0,95,0.04,,,0.02,meteohub,2013-01-09 06:11:00,
2013-01-09 00:13:00,48.0,46.6,-100.00,North,5,10.0,14.0,95,0.04,,,0.02,meteohub,2013-01-09 06:13:00,
2013-01-09 00:14:00,48.0,46.6,-100.00,North,5,6.0,14.0,95,0.04,,,0.02,meteohub,2013-01-09 06:14:00,
2013-01-09 00:16:00,48.0,46.6,-100.00,North,11,6.0,14.0,95,0.06,,,0.04,meteohub,2013-01-09 06:16:00,
2013-01-09 00:19:00,48.0,46.6,-100.00,North,9,10.0,14.0,95,0.06,,,0.04,meteohub,2013-01-09 06:19:00,
2013-01-09 00:21:00,48.0,46.6,-100.00,North,11,9.0,13.0,95,0.06,,,0.04,meteohub,2013-01-09 06:21:00,
2013-01-09 00:24:00,48.0,46.6,-100.00,North,11,9.0,13.0,95,0.06,,,0.04,meteohub,2013-01-09 06:24:00,
2013-01-09 00:25:00,48.0,46.6,-100.00,NNE,19,9.0,13.0,95,0.06,,,0.05,meteohub,2013-01-09 06:25:00,
2013-01-09 00:26:00,48.0,46.6,-100.00,NNE,19,6.0,13.0,95,0.07,,,0.05,meteohub,2013-01-09 06:26:00,
2013-01-09 00:29:00,48.0,46.6,-100.00,NNE,13,10.0,13.0,95,0.07,,,0.05,meteohub,2013-01-09 06:29:00,
2013-01-09 00:30:00,48.0,46.6,-100.00,NNE,13,6.0,13.0,95,0.07,,,0.06,meteohub,2013-01-09 06:30:00,
2013-01-09 00:31:00,47.8,46.4,-100.00,NNE,13,7.0,13.0,95,0.07,,,0.06,meteohub,2013-01-09 06:31:00,
2013-01-09 00:34:00,47.8,46.4,-100.00,North,11,5.0,13.0,95,0.07,,,0.06,meteohub,2013-01-09 06:34:00,
2013-01-09 00:35:00,47.8,46.4,-100.00,NNE,13,5.0,13.0,95,0.07,,,0.06,meteohub,2013-01-09 06:35:00,
2013-01-09 00:37:00,47.8,46.4,-100.00,NNE,13,5.0,13.0,95,0.07,,,0.06,meteohub,2013-01-09 06:37:00,
2013-01-09 00:39:00,47.8,46.4,-100.00,NNE,14,5.0,13.0,95,0.07,,,0.06,meteohub,2013-01-09 06:39:00,
2013-01-09 00:40:00,47.8,46.4,-100.00,NNE,14,5.0,13.0,95,0.07,,,0.06,meteohub,2013-01-09 06:40:00,
2013-01-09 00:42:00,47.8,46.4,-100.00,NNE,14,5.0,13.0,95,0.07,,,0.06,meteohub,2013-01-09 06:42:00,
2013-01-09 00:44:00,48.0,46.6,-100.00,NNE,16,5.0,13.0,95,0.07,,,0.06,meteohub,2013-01-09 06:44:00,
2013-01-09 00:45:00,48.0,46.6,-100.00,NNE,16,3.0,13.0,95,0.07,,,0.06,meteohub,2013-01-09 06:45:00,
2013-01-09 00:47:00,48.0,46.6,-100.00,NNE,16,5.0,10.0,95,0.08,,,0.06,meteohub,2013-01-09 06:47:00,
2013-01-09 00:50:00,48.0,46.6,-100.00,NNE,16,6.0,10.0,95,0.08,,,0.07,meteohub,2013-01-09 06:50:00,
2013-01-09 00:52:00,48.0,46.6,-100.00,NNE,18,1.0,8.0,95,0.07,,,0.07,meteohub,2013-01-09 06:52:00,
2013-01-09 00:55:00,48.0,46.6,-100.00,NNE,18,4.0,7.0,95,0.07,,,0.07,meteohub,2013-01-09 06:55:00,
2013-01-09 00:56:00,48.0,46.6,-100.00,NNE,18,2.0,7.0,95,0.07,,,0.07,meteohub,2013-01-09 06:56:00,
2013-01-09 00:58:00,48.0,46.6,-100.00,NNE,18,2.0,7.0,95,0.07,,,0.07,meteohub,2013-01-09 06:58:00,
2013-01-09 01:00:00,48.0,46.6,-100.00,NNE,18,5.0,7.0,95,0.07,,,0.07,meteohub,2013-01-09 07:00:00,
2013-01-09 01:01:00,48.0,46.6,-100.00,NNE,18,4.0,7.0,95,0.07,,,0.07,meteohub,2013-01-09 07:01:00,
2013-01-09 01:03:00,48.2,46.8,-100.00,NNE,23,6.0,7.0,95,0.07,,,0.07,meteohub,2013-01-09 07:03:00,
2013-01-09 01:05:00,48.4,46.9,-100.00,NNE,30,6.0,7.0,95,0.07,,,0.08,meteohub,2013-01-09 07:05:00,
2013-01-09 01:06:00,48.4,46.9,-100.00,NNE,31,5.0,7.0,95,0.07,,,0.08,meteohub,2013-01-09 07:06:00,
2013-01-09 01:07:00,48.4,46.9,-100.00,NNE,32,6.0,7.0,95,0.07,,,0.08,meteohub,2013-01-09 07:07:00,
2013-01-09 01:08:00,48.6,47.1,-100.00,NE,43,7.0,7.0,95,0.07,,,0.08,meteohub,2013-01-09 07:08:00,
2013-01-09 01:10:00,48.6,47.1,-100.00,NE,48,5.0,10.0,95,0.06,,,0.09,meteohub,2013-01-09 07:10:00,
2013-01-09 01:11:00,48.6,47.1,-100.00,NE,51,6.0,10.0,95,0.06,,,0.09,meteohub,2013-01-09 07:11:00,
2013-01-09 01:12:00,48.6,47.1,-100.00,NE,51,4.0,10.0,95,0.06,,,0.09,meteohub,2013-01-09 07:12:00,
2013-01-09 01:14:00,48.7,47.3,-100.00,NE,51,3.0,10.0,95,0.06,,,0.09,meteohub,2013-01-09 07:14:00,
2013-01-09 01:15:00,48.9,47.5,-100.00,NE,52,5.0,10.0,95,0.06,,,0.10,meteohub,2013-01-09 07:15:00,
2013-01-09 01:17:00,48.9,47.5,-100.00,NE,52,4.0,10.0,95,0.06,,,0.10,meteohub,2013-01-09 07:17:00,
2013-01-09 01:19:00,49.1,47.7,-100.00,NE,52,5.0,10.0,95,0.06,,,0.10,meteohub,2013-01-09 07:19:00,
2013-01-09 01:21:00,49.3,48.2,-100.00,NE,52,4.0,10.0,96,0.07,,,0.12,meteohub,2013-01-09 07:21:00,
2013-01-09 01:22:00,49.3,47.8,-100.00,NE,51,3.0,10.0,95,0.07,,,0.12,meteohub,2013-01-09 07:22:00,
2013-01-09 01:24:00,49.5,48.0,-100.00,NE,51,3.0,10.0,95,0.07,,,0.12,meteohub,2013-01-09 07:24:00,
2013-01-09 01:26:00,49.5,48.0,-100.00,NE,51,3.0,7.0,95,0.09,,,0.14,meteohub,2013-01-09 07:26:00,
2013-01-09 01:27:00,49.5,48.0,-100.00,NE,51,3.0,7.0,95,0.09,,,0.14,meteohub,2013-01-09 07:27:00,
2013-01-09 01:29:00,49.5,48.0,-100.00,NE,51,0.0,7.0,95,0.09,,,0.14,meteohub,2013-01-09 07:29:00,
2013-01-09 01:31:00,49.6,48.2,-100.00,NE,51,0.0,7.0,95,0.08,,,0.14,meteohub,2013-01-09 07:31:00,
2013-01-09 01:32:00,49.6,48.2,-100.00,NE,51,0.0,7.0,95,0.08,,,0.14,meteohub,2013-01-09 07:32:00,
2013-01-09 01:35:00,49.8,48.4,-100.00,NE,51,3.0,7.0,95,0.08,,,0.14,meteohub,2013-01-09 07:35:00,
2013-01-09 01:36:00,49.8,48.4,-100.00,NE,51,4.0,7.0,95,0.09,,,0.15,meteohub,2013-01-09 07:36:00,
2013-01-09 01:38:00,49.8,48.4,-100.00,NE,52,4.0,7.0,95,0.09,,,0.15,meteohub,2013-01-09 07:38:00,
2013-01-09 01:40:00,49.8,48.4,-100.00,NE,53,4.0,7.0,95,0.09,,,0.16,meteohub,2013-01-09 07:40:00,
2013-01-09 01:41:00,49.8,48.4,-100.00,NE,53,5.0,7.0,95,0.10,,,0.16,meteohub,2013-01-09 07:41:00,
2013-01-09 01:43:00,49.8,48.4,-100.00,ENE,57,5.0,7.0,95,0.10,,,0.16,meteohub,2013-01-09 07:43:00,
2013-01-09 01:44:00,49.8,48.4,-100.00,ENE,65,8.0,8.0,95,0.10,,,0.16,meteohub,2013-01-09 07:44:00,
2013-01-09 01:45:00,49.8,48.4,-100.00,ENE,69,9.0,9.0,95,0.10,,,0.17,meteohub,2013-01-09 07:45:00,
2013-01-09 01:46:00,49.8,48.4,-100.00,ENE,74,6.0,7.0,95,0.10,,,0.17,meteohub,2013-01-09 07:46:00,
2013-01-09 01:48:00,49.8,48.4,-100.00,ENE,74,3.0,7.0,95,0.10,,,0.17,meteohub,2013-01-09 07:48:00,
2013-01-09 01:49:00,49.8,48.4,-100.00,ENE,75,4.0,7.0,95,0.10,,,0.17,meteohub,2013-01-09 07:49:00,
2013-01-09 01:50:00,49.6,48.2,-100.00,ENE,76,7.0,10.0,95,0.10,,,0.17,meteohub,2013-01-09 07:50:00,
2013-01-09 01:52:00,49.6,48.2,-100.00,ENE,76,5.0,10.0,95,0.10,,,0.17,meteohub,2013-01-09 07:52:00,
2013-01-09 01:53:00,49.6,48.2,-100.00,ENE,73,7.0,10.0,95,0.10,,,0.17,meteohub,2013-01-09 07:53:00,
2013-01-09 01:54:00,49.6,48.2,-100.00,ENE,71,6.0,10.0,95,0.10,,,0.17,meteohub,2013-01-09 07:54:00,
2013-01-09 01:55:00,49.6,48.2,-100.00,ENE,63,5.0,10.0,95,0.10,,,0.17,meteohub,2013-01-09 07:55:00,
2013-01-09 01:57:00,49.5,48.0,-100.00,NE,53,4.0,10.0,95,0.10,,,0.17,meteohub,2013-01-09 07:57:00,
2013-01-09 01:58:00,49.5,48.0,-100.00,NE,41,3.0,10.0,95,0.10,,,0.17,meteohub,2013-01-09 07:58:00,
2013-01-09 02:00:00,49.5,48.0,-100.00,NE,41,5.0,11.0,95,0.10,,,0.17,meteohub,2013-01-09 08:00:00,
2013-01-09 02:02:00,49.5,48.0,-100.00,NE,41,7.0,11.0,95,0.10,,,0.17,meteohub,2013-01-09 08:02:00,
2013-01-09 02:03:00,49.5,48.0,-100.00,NE,41,7.0,11.0,95,0.10,,,0.17,meteohub,2013-01-09 08:03:00,
2013-01-09 02:05:00,49.5,48.0,-100.00,NE,42,5.0,11.0,95,0.10,,,0.18,meteohub,2013-01-09 08:05:00,
2013-01-09 02:07:00,49.5,48.0,-100.00,NE,42,4.0,11.0,95,0.10,,,0.18,meteohub,2013-01-09 08:07:00,
2013-01-09 02:09:00,49.5,48.0,-100.00,NE,39,6.0,11.0,95,0.10,,,0.18,meteohub,2013-01-09 08:09:00,
2013-01-09 02:10:00,49.5,48.0,-100.00,NE,38,6.0,11.0,95,0.09,,,0.18,meteohub,2013-01-09 08:10:00,
2013-01-09 02:11:00,49.5,48.0,-100.00,NE,38,5.0,11.0,95,0.09,,,0.18,meteohub,2013-01-09 08:11:00,
2013-01-09 02:13:00,49.5,48.0,-100.00,NNE,32,4.0,11.0,95,0.09,,,0.18,meteohub,2013-01-09 08:13:00,
2013-01-09 02:14:00,49.5,48.0,-100.00,NNE,31,6.0,11.0,95,0.09,,,0.18,meteohub,2013-01-09 08:14:00,
2013-01-09 02:16:00,49.5,48.0,-100.00,NNE,30,6.0,11.0,95,0.08,,,0.19,meteohub,2013-01-09 08:16:00,
2013-01-09 02:17:00,49.5,48.0,-100.00,NNE,30,6.0,11.0,95,0.08,,,0.19,meteohub,2013-01-09 08:17:00,
2013-01-09 02:18:00,49.5,48.0,-100.00,NNE,26,6.0,11.0,95,0.08,,,0.19,meteohub,2013-01-09 08:18:00,
2013-01-09 02:19:00,49.5,48.0,-100.00,NNE,22,4.0,11.0,95,0.08,,,0.19,meteohub,2013-01-09 08:19:00,
2013-01-09 02:21:00,49.5,48.0,-100.00,NNE,20,5.0,11.0,95,0.06,,,0.19,meteohub,2013-01-09 08:21:00,
2013-01-09 02:22:00,49.5,48.0,-100.00,NNE,20,5.0,11.0,95,0.06,,,0.19,meteohub,2013-01-09 08:22:00,
2013-01-09 02:23:00,49.5,48.0,-100.00,NNE,20,6.0,11.0,95,0.06,,,0.19,meteohub,2013-01-09 08:23:00,
2013-01-09 02:24:00,49.5,48.0,-100.00,NNE,20,4.0,11.0,95,0.06,,,0.19,meteohub,2013-01-09 08:24:00,
2013-01-09 02:26:00,49.5,48.0,-100.00,NNE,20,4.0,10.0,95,0.06,,,0.19,meteohub,2013-01-09 08:26:00,
2013-01-09 02:28:00,49.5,48.0,-100.00,NNE,22,7.0,10.0,95,0.06,,,0.19,meteohub,2013-01-09 08:28:00,
2013-01-09 02:29:00,49.5,48.0,-100.00,NNE,22,7.0,10.0,95,0.06,,,0.19,meteohub,2013-01-09 08:29:00,
2013-01-09 02:32:00,49.5,48.0,-100.00,NNE,17,10.0,11.0,95,0.05,,,0.20,meteohub,2013-01-09 08:32:00,
2013-01-09 02:33:00,49.5,48.0,-100.00,NNE,14,3.0,11.0,95,0.05,,,0.20,meteohub,2013-01-09 08:33:00,
2013-01-09 02:34:00,49.5,48.0,-100.00,NNE,14,3.0,11.0,95,0.05,,,0.20,meteohub,2013-01-09 08:34:00,
2013-01-09 02:37:00,49.3,47.8,-100.00,NNE,19,5.0,12.0,95,0.05,,,0.21,meteohub,2013-01-09 08:37:00,
2013-01-09 02:38:00,49.3,47.8,-100.00,NNE,29,4.0,12.0,95,0.05,,,0.21,meteohub,2013-01-09 08:38:00,
2013-01-09 02:39:00,49.3,47.8,-100.00,NNE,28,8.0,12.0,95,0.05,,,0.21,meteohub,2013-01-09 08:39:00,
2013-01-09 02:42:00,49.3,47.8,-100.00,NNE,27,9.0,13.0,95,0.05,,,0.21,meteohub,2013-01-09 08:42:00,
2013-01-09 02:43:00,49.3,47.8,-100.00,NNE,18,9.0,13.0,95,0.05,,,0.21,meteohub,2013-01-09 08:43:00,
2013-01-09 02:44:00,49.3,47.8,-100.00,NNE,17,7.0,13.0,95,0.05,,,0.21,meteohub,2013-01-09 08:44:00,
2013-01-09 02:45:00,49.3,47.8,-100.00,NNE,32,7.0,13.0,95,0.05,,,0.21,meteohub,2013-01-09 08:45:00,
2013-01-09 02:47:00,49.3,47.8,-100.00,NNE,22,8.0,13.0,95,0.05,,,0.22,meteohub,2013-01-09 08:47:00,
2013-01-09 02:48:00,49.3,47.8,-100.00,NNE,23,7.0,13.0,95,0.05,,,0.22,meteohub,2013-01-09 08:48:00,
2013-01-09 02:49:00,49.3,47.8,-100.00,NNE,23,3.0,13.0,95,0.05,,,0.22,meteohub,2013-01-09 08:49:00,
2013-01-09 02:50:00,49.3,47.8,-100.00,NNE,23,6.0,13.0,95,0.05,,,0.23,meteohub,2013-01-09 08:50:00,
2013-01-09 02:52:00,49.3,47.8,-100.00,NNE,26,9.0,13.0,95,0.06,,,0.23,meteohub,2013-01-09 08:52:00,
2013-01-09 02:54:00,49.3,47.8,-100.00,NE,36,9.0,13.0,95,0.06,,,0.23,meteohub,2013-01-09 08:54:00,
2013-01-09 02:55:00,49.3,47.8,-100.00,NE,35,10.0,13.0,95,0.06,,,0.23,meteohub,2013-01-09 08:55:00,
2013-01-09 02:57:00,49.3,47.8,-100.00,NE,40,9.0,13.0,95,0.06,,,0.23,meteohub,2013-01-09 08:57:00,
2013-01-09 02:59:00,49.3,47.8,-100.00,NE,40,10.0,13.0,95,0.06,,,0.23,meteohub,2013-01-09 08:59:00,
2013-01-09 03:00:00,49.3,47.8,-100.00,NE,41,6.0,13.0,95,0.06,,,0.24,meteohub,2013-01-09 09:00:00,
2013-01-09 03:01:00,49.3,47.8,-100.00,NE,42,5.0,15.0,95,0.07,,,0.24,meteohub,2013-01-09 09:01:00,
2013-01-09 03:03:00,49.3,47.8,-100.00,NE,51,6.0,15.0,95,0.07,,,0.24,meteohub,2013-01-09 09:03:00,
2013-01-09 03:05:00,49.3,47.8,-100.00,NE,49,7.0,15.0,95,0.07,,,0.24,meteohub,2013-01-09 09:05:00,
2013-01-09 03:06:00,49.3,47.8,-100.00,NE,42,5.0,15.0,95,0.06,,,0.24,meteohub,2013-01-09 09:06:00,
2013-01-09 03:10:00,49.3,47.8,-100.00,NE,46,6.0,15.0,95,0.06,,,0.24,meteohub,2013-01-09 09:10:00,
2013-01-09 03:11:00,49.3,47.8,-100.00,NE,51,5.0,15.0,95,0.06,,,0.24,meteohub,2013-01-09 09:11:00,
2013-01-09 03:15:00,49.5,48.0,-100.00,ENE,57,6.0,14.0,95,0.05,,,0.24,meteohub,2013-01-09 09:15:00,
2013-01-09 03:16:00,49.5,48.0,-100.00,ENE,59,8.0,14.0,95,0.05,,,0.24,meteohub,2013-01-09 09:16:00,
2013-01-09 03:20:00,49.5,48.0,-100.00,ENE,60,9.0,15.0,95,0.05,,,0.24,meteohub,2013-01-09 09:20:00,
2013-01-09 03:21:00,49.5,48.0,-100.00,ENE,60,7.0,15.0,95,0.05,,,0.24,meteohub,2013-01-09 09:21:00,
2013-01-09 03:22:00,49.5,48.0,-100.00,ENE,57,9.0,15.0,95,0.05,,,0.24,meteohub,2013-01-09 09:22:00,
2013-01-09 03:26:00,49.5,48.0,-100.00,ENE,58,6.0,15.0,95,0.05,,,0.25,meteohub,2013-01-09 09:26:00,
2013-01-09 03:27:00,49.6,48.2,-100.00,NE,44,6.0,15.0,95,0.05,,,0.25,meteohub,2013-01-09 09:27:00,
2013-01-09 03:31:00,49.6,48.2,-100.00,ENE,59,5.0,14.0,95,0.04,,,0.25,meteohub,2013-01-09 09:31:00,
2013-01-09 03:32:00,49.6,48.2,-100.00,ENE,59,6.0,14.0,95,0.04,,,0.25,meteohub,2013-01-09 09:32:00,
2013-01-09 03:33:00,49.6,48.2,-100.00,ENE,60,6.0,14.0,95,0.04,,,0.25,meteohub,2013-01-09 09:33:00,
2013-01-09 03:36:00,49.8,48.4,-100.00,NE,44,3.0,12.0,95,0.04,,,0.25,meteohub,2013-01-09 09:36:00,
2013-01-09 03:37:00,49.8,48.4,-100.00,NE,45,10.0,12.0,95,0.04,,,0.25,meteohub,2013-01-09 09:37:00,
2013-01-09 03:38:00,49.8,48.4,-100.00,NE,49,5.0,12.0,95,0.04,,,0.25,meteohub,2013-01-09 09:38:00,
2013-01-09 03:41:00,49.8,48.4,-100.00,NE,49,4.0,12.0,95,0.03,,,0.25,meteohub,2013-01-09 09:41:00,
2013-01-09 03:42:00,49.8,48.4,-100.00,NE,49,3.0,12.0,95,0.03,,,0.25,meteohub,2013-01-09 09:42:00,
2013-01-09 03:43:00,49.8,48.4,-100.00,NE,49,4.0,12.0,95,0.03,,,0.25,meteohub,2013-01-09 09:43:00,
2013-01-09 03:45:00,49.8,48.4,-100.00,NE,47,6.0,11.0,95,0.03,,,0.25,meteohub,2013-01-09 09:45:00,
2013-01-09 03:46:00,49.8,48.4,-100.00,NE,48,5.0,11.0,95,0.03,,,0.25,meteohub,2013-01-09 09:46:00,
2013-01-09 03:48:00,49.8,48.4,-100.00,NE,48,7.0,11.0,95,0.03,,,0.25,meteohub,2013-01-09 09:48:00,
2013-01-09 03:50:00,49.8,48.4,-100.00,NE,51,6.0,11.0,95,0.02,,,0.25,meteohub,2013-01-09 09:50:00,
2013-01-09 03:51:00,49.8,48.4,-100.00,NE,51,5.0,11.0,95,0.02,,,0.25,meteohub,2013-01-09 09:51:00,
2013-01-09 03:53:00,49.8,48.4,-100.00,NE,51,6.0,11.0,95,0.02,,,0.25,meteohub,2013-01-09 09:53:00,
2013-01-09 03:55:00,49.8,48.4,-100.00,NE,53,4.0,9.0,95,0.02,,,0.25,meteohub,2013-01-09 09:55:00,
2013-01-09 03:57:00,49.8,48.4,-100.00,NE,53,3.0,9.0,95,0.02,,,0.25,meteohub,2013-01-09 09:57:00,
2013-01-09 03:59:00,49.8,48.4,-100.00,NE,52,3.0,9.0,95,0.02,,,0.25,meteohub,2013-01-09 09:59:00,
2013-01-09 04:01:00,49.8,48.4,-100.00,NE,52,3.0,9.0,95,0.01,,,0.25,meteohub,2013-01-09 10:01:00,
2013-01-09 04:02:00,49.8,48.4,-100.00,NE,51,4.0,9.0,95,0.01,,,0.25,meteohub,2013-01-09 10:02:00,
2013-01-09 04:04:00,50.2,48.7,-100.00,NE,49,2.0,9.0,95,0.01,,,0.25,meteohub,2013-01-09 10:04:00,
2013-01-09 04:05:00,50.2,48.7,-100.00,NE,49,3.0,9.0,95,0.01,,,0.25,meteohub,2013-01-09 10:05:00,
2013-01-09 04:06:00,50.2,48.7,-100.00,NE,49,6.0,10.0,95,0.01,,,0.25,meteohub,2013-01-09 10:06:00,
2013-01-09 04:07:00,50.2,48.7,-100.00,NE,49,5.0,10.0,95,0.01,,,0.25,meteohub,2013-01-09 10:07:00,
2013-01-09 04:10:00,50.2,48.7,-100.00,NE,51,4.0,10.0,95,0.01,,,0.25,meteohub,2013-01-09 10:10:00,
2013-01-09 04:12:00,50.2,48.7,-100.00,NE,51,6.0,10.0,95,0.02,,,0.26,meteohub,2013-01-09 10:12:00,
2013-01-09 04:15:00,50.2,48.7,-100.00,NE,51,4.0,10.0,95,0.02,,,0.26,meteohub,2013-01-09 10:15:00,
2013-01-09 04:17:00,50.2,48.7,-100.00,NE,50,6.0,10.0,95,0.02,,,0.26,meteohub,2013-01-09 10:17:00,
2013-01-09 04:18:00,50.2,48.7,-100.00,NE,50,6.0,10.0,95,0.02,,,0.26,meteohub,2013-01-09 10:18:00,
2013-01-09 04:20:00,50.2,48.7,-100.00,NE,49,4.0,9.0,95,0.01,,,0.26,meteohub,2013-01-09 10:20:00,
2013-01-09 04:22:00,50.2,48.7,-100.00,NE,48,4.0,9.0,95,0.01,,,0.26,meteohub,2013-01-09 10:22:00,
2013-01-09 04:23:00,50.2,48.7,-100.00,NE,48,4.0,9.0,95,0.01,,,0.26,meteohub,2013-01-09 10:23:00,
2013-01-09 04:25:00,50.2,48.7,-100.00,NE,48,3.0,9.0,95,0.01,,,0.26,meteohub,2013-01-09 10:25:00,
2013-01-09 04:27:00,50.2,48.7,-100.00,NE,48,5.0,9.0,95,0.01,,,0.26,meteohub,2013-01-09 10:27:00,
2013-01-09 04:28:00,50.2,48.7,-100.00,NE,47,4.0,9.0,95,0.01,,,0.26,meteohub,2013-01-09 10:28:00,
2013-01-09 04:29:00,50.2,48.7,-100.00,NE,47,2.0,9.0,95,0.01,,,0.26,meteohub,2013-01-09 10:29:00,
2013-01-09 04:31:00,50.2,48.7,-100.00,NE,44,5.0,9.0,95,0.01,,,0.26,meteohub,2013-01-09 10:31:00,
2013-01-09 04:32:00,50.2,48.7,-100.00,NE,44,3.0,9.0,95,0.01,,,0.26,meteohub,2013-01-09 10:32:00,
2013-01-09 04:34:00,50.2,48.7,-100.00,NE,44,3.0,9.0,95,0.01,,,0.26,meteohub,2013-01-09 10:34:00,
2013-01-09 04:36:00,50.2,48.7,-100.00,NE,44,6.0,8.0,95,0.02,,,0.27,meteohub,2013-01-09 10:36:00,
2013-01-09 04:37:00,50.2,48.7,-100.00,NE,42,3.0,8.0,95,0.02,,,0.27,meteohub,2013-01-09 10:37:00,
2013-01-09 04:39:00,50.2,48.7,-100.00,NE,40,4.0,8.0,95,0.02,,,0.27,meteohub,2013-01-09 10:39:00,
2013-01-09 04:41:00,50.2,48.7,-100.00,NE,40,5.0,10.0,95,0.02,,,0.27,meteohub,2013-01-09 10:41:00,
2013-01-09 04:42:00,50.2,48.7,-100.00,NE,40,5.0,10.0,95,0.02,,,0.27,meteohub,2013-01-09 10:42:00,
2013-01-09 04:44:00,50.2,48.7,-100.00,NE,40,4.0,10.0,95,0.02,,,0.27,meteohub,2013-01-09 10:44:00,
2013-01-09 04:47:00,50.2,48.7,-100.00,NE,40,3.0,10.0,95,0.02,,,0.27,meteohub,2013-01-09 10:47:00,
2013-01-09 04:48:00,50.2,48.7,-100.00,NE,40,3.0,10.0,95,0.02,,,0.27,meteohub,2013-01-09 10:48:00,
2013-01-09 04:49:00,50.2,48.7,-100.00,NE,39,7.0,10.0,95,0.02,,,0.27,meteohub,2013-01-09 10:49:00,
2013-01-09 04:52:00,50.2,48.7,-100.00,NE,36,6.0,11.0,95,0.02,,,0.27,meteohub,2013-01-09 10:52:00,
2013-01-09 04:53:00,50.2,48.7,-100.00,NE,36,5.0,11.0,95,0.02,,,0.27,meteohub,2013-01-09 10:53:00,
2013-01-09 04:54:00,50.2,48.7,-100.00,NE,36,6.0,11.0,95,0.02,,,0.27,meteohub,2013-01-09 10:54:00,
2013-01-09 04:57:00,50.2,48.7,-100.00,NE,50,9.0,11.0,95,0.02,,,0.27,meteohub,2013-01-09 10:57:00,
2013-01-09 04:58:00,50.2,48.7,-100.00,NE,51,7.0,11.0,95,0.02,,,0.27,meteohub,2013-01-09 10:58:00,
2013-01-09 04:59:00,50.2,48.7,-100.00,NE,46,8.0,11.0,95,0.02,,,0.27,meteohub,2013-01-09 10:59:00,
2013-01-09 05:03:00,50.2,48.7,-100.00,NE,49,4.0,12.0,95,0.02,,,0.27,meteohub,2013-01-09 11:03:00,
2013-01-09 05:04:00,50.2,48.7,-100.00,NE,44,6.0,12.0,95,0.02,,,0.27,meteohub,2013-01-09 11:04:00,
2013-01-09 05:05:00,50.2,48.7,-100.00,NE,44,6.0,12.0,95,0.02,,,0.27,meteohub,2013-01-09 11:05:00,
2013-01-09 05:08:00,50.2,48.7,-100.00,NE,43,4.0,12.0,95,0.01,,,0.27,meteohub,2013-01-09 11:08:00,
2013-01-09 05:09:00,50.2,48.7,-100.00,NE,43,6.0,12.0,95,0.01,,,0.27,meteohub,2013-01-09 11:09:00,
2013-01-09 05:10:00,50.2,48.7,-100.00,NE,42,5.0,12.0,95,0.01,,,0.27,meteohub,2013-01-09 11:10:00,
2013-01-09 05:13:00,50.2,48.7,-100.00,NNE,28,7.0,12.0,95,0.01,,,0.27,meteohub,2013-01-09 11:13:00,
2013-01-09 05:14:00,50.2,48.7,-100.00,NNE,28,10.0,12.0,95,0.01,,,0.27,meteohub,2013-01-09 11:14:00,
2013-01-09 05:15:00,50.2,48.7,-100.00,NNE,28,5.0,12.0,95,0.01,,,0.27,meteohub,2013-01-09 11:15:00,
2013-01-09 05:18:00,50.2,48.7,-100.00,NNE,33,4.0,13.0,95,0.01,,,0.27,meteohub,2013-01-09 11:18:00,
2013-01-09 05:19:00,50.2,48.7,-100.00,NNE,32,11.0,13.0,95,0.01,,,0.27,meteohub,2013-01-09 11:19:00,
2013-01-09 05:20:00,50.2,48.7,-100.00,NE,34,8.0,13.0,95,0.01,,,0.27,meteohub,2013-01-09 11:20:00,
2013-01-09 05:24:00,50.2,48.7,-100.00,NE,38,5.0,13.0,95,0.02,,,0.28,meteohub,2013-01-09 11:24:00,
2013-01-09 05:25:00,50.2,48.7,-100.00,NE,38,6.0,13.0,95,0.02,,,0.28,meteohub,2013-01-09 11:25:00,
2013-01-09 05:26:00,50.2,48.7,-100.00,NE,34,7.0,13.0,95,0.02,,,0.28,meteohub,2013-01-09 11:26:00,
2013-01-09 05:29:00,50.2,48.7,-100.00,NE,35,9.0,13.0,95,0.02,,,0.28,meteohub,2013-01-09 11:29:00,
2013-01-09 05:30:00,50.2,48.7,-100.00,NE,34,12.0,13.0,95,0.02,,,0.28,meteohub,2013-01-09 11:30:00,
2013-01-09 05:31:00,50.2,48.7,-100.00,NNE,33,8.0,12.0,95,0.01,,,0.28,meteohub,2013-01-09 11:31:00,
2013-01-09 05:34:00,50.2,48.7,-100.00,NE,37,9.0,12.0,95,0.01,,,0.28,meteohub,2013-01-09 11:34:00,
2013-01-09 05:35:00,50.2,48.7,-100.00,NE,34,10.0,12.0,95,0.01,,,0.28,meteohub,2013-01-09 11:35:00,
2013-01-09 05:36:00,49.8,48.4,-100.00,NNE,30,10.0,14.0,95,0.02,,,0.29,meteohub,2013-01-09 11:36:00,
2013-01-09 05:39:00,49.8,48.4,-100.00,NE,40,12.0,14.0,95,0.02,,,0.29,meteohub,2013-01-09 11:39:00,
2013-01-09 05:40:00,50.2,48.7,-100.00,NNE,32,7.0,14.0,95,0.02,,,0.30,meteohub,2013-01-09 11:40:00,
2013-01-09 05:41:00,50.2,48.7,-100.00,NE,34,9.0,15.0,95,0.03,,,0.30,meteohub,2013-01-09 11:41:00,
2013-01-09 05:45:00,50.2,48.7,-100.00,NE,34,10.0,15.0,95,0.03,,,0.30,meteohub,2013-01-09 11:45:00,
2013-01-09 05:46:00,50.2,48.7,-100.00,NNE,32,6.0,15.0,95,0.03,,,0.30,meteohub,2013-01-09 11:46:00,
2013-01-09 05:50:00,50.2,48.7,-100.00,NNE,28,7.0,15.0,95,0.03,,,0.30,meteohub,2013-01-09 11:50:00,
2013-01-09 05:51:00,50.2,48.7,-100.00,NNE,30,4.0,15.0,95,0.04,,,0.31,meteohub,2013-01-09 11:51:00,
2013-01-09 05:52:00,50.2,48.7,-100.00,NNE,31,11.0,15.0,95,0.04,,,0.31,meteohub,2013-01-09 11:52:00,
2013-01-09 05:55:00,50.2,48.7,-100.00,NNE,28,7.0,15.0,95,0.05,,,0.32,meteohub,2013-01-09 11:55:00,
2013-01-09 05:56:00,50.2,48.7,-100.00,NNE,31,9.0,15.0,95,0.05,,,0.32,meteohub,2013-01-09 11:56:00,
2013-01-09 05:57:00,50.2,48.7,-100.00,NNE,27,5.0,15.0,95,0.05,,,0.32,meteohub,2013-01-09 11:57:00,
2013-01-09 06:00:00,50.2,48.7,-100.00,NNE,33,9.0,15.0,95,0.06,,,0.33,meteohub,2013-01-09 12:00:00,
2013-01-09 06:01:00,50.2,48.7,-100.00,NNE,30,9.0,14.0,95,0.06,,,0.33,meteohub,2013-01-09 12:01:00,
2013-01-09 06:02:00,50.2,48.7,-100.00,NNE,28,7.0,14.0,95,0.06,,,0.33,meteohub,2013-01-09 12:02:00,
2013-01-09 06:05:00,50.2,48.7,-100.00,NNE,22,6.0,14.0,95,0.07,,,0.34,meteohub,2013-01-09 12:05:00,
2013-01-09 06:06:00,50.2,48.7,-100.00,NNE,19,6.0,14.0,95,0.07,,,0.34,meteohub,2013-01-09 12:06:00,
2013-01-09 06:07:00,50.2,48.7,-100.00,NNE,19,8.0,14.0,95,0.07,,,0.34,meteohub,2013-01-09 12:07:00,
2013-01-09 06:10:00,50.2,48.7,-100.00,NNE,32,5.0,16.0,95,0.08,,,0.35,meteohub,2013-01-09 12:10:00,
2013-01-09 06:11:00,50.2,48.7,-100.00,NNE,30,10.0,16.0,95,0.08,,,0.35,meteohub,2013-01-09 12:11:00,
2013-01-09 06:12:00,50.2,48.7,-100.00,NNE,31,10.0,16.0,95,0.08,,,0.35,meteohub,2013-01-09 12:12:00,
2013-01-09 06:15:00,50.2,48.7,-100.00,NNE,30,7.0,16.0,95,0.08,,,0.35,meteohub,2013-01-09 12:15:00,
2013-01-09 06:16:00,50.2,48.7,-100.00,NE,37,9.0,16.0,95,0.08,,,0.35,meteohub,2013-01-09 12:16:00,
2013-01-09 06:17:00,50.2,48.7,-100.00,NE,34,9.0,16.0,95,0.08,,,0.35,meteohub,2013-01-09 12:17:00,
2013-01-09 06:21:00,50.2,48.7,-100.00,NNE,27,7.0,14.0,95,0.08,,,0.36,meteohub,2013-01-09 12:21:00,
2013-01-09 06:22:00,50.2,48.7,-100.00,NNE,27,2.0,14.0,95,0.08,,,0.36,meteohub,2013-01-09 12:22:00,
2013-01-09 06:23:00,50.2,48.7,-100.00,NNE,28,5.0,14.0,95,0.08,,,0.36,meteohub,2013-01-09 12:23:00,
2013-01-09 06:26:00,50.2,48.7,-100.00,NNE,30,9.0,14.0,95,0.09,,,0.37,meteohub,2013-01-09 12:26:00,
2013-01-09 06:27:00,50.2,48.7,-100.00,NE,36,10.0,14.0,95,0.09,,,0.37,meteohub,2013-01-09 12:27:00,
2013-01-09 06:28:00,50.4,48.9,-100.00,NE,40,10.0,14.0,95,0.09,,,0.37,meteohub,2013-01-09 12:28:00,
2013-01-09 06:31:00,50.4,48.9,-100.00,NE,36,9.0,14.0,95,0.08,,,0.37,meteohub,2013-01-09 12:31:00,
2013-01-09 06:33:00,50.4,48.9,-100.00,NE,40,11.0,14.0,95,0.08,,,0.37,meteohub,2013-01-09 12:33:00,
2013-01-09 06:36:00,50.5,49.1,-100.00,NE,38,9.0,14.0,95,0.08,,,0.37,meteohub,2013-01-09 12:36:00,
2013-01-09 06:38:00,50.5,49.1,-100.00,NE,44,10.0,14.0,95,0.08,,,0.37,meteohub,2013-01-09 12:38:00,
2013-01-09 06:39:00,50.5,49.1,-100.00,NE,42,11.0,14.0,95,0.08,,,0.37,meteohub,2013-01-09 12:39:00,
2013-01-09 06:41:00,50.5,49.1,-100.00,NNE,26,13.0,15.0,95,0.08,,,0.38,meteohub,2013-01-09 12:41:00,
2013-01-09 06:43:00,50.7,49.3,-100.00,NE,36,10.0,15.0,95,0.08,,,0.38,meteohub,2013-01-09 12:43:00,
2013-01-09 06:44:00,50.7,49.3,-100.00,NE,49,10.0,15.0,95,0.08,,,0.38,meteohub,2013-01-09 12:44:00,
2013-01-09 06:47:00,50.7,49.3,-100.00,NNE,30,9.0,15.0,95,0.08,,,0.38,meteohub,2013-01-09 12:47:00,
2013-01-09 06:48:00,50.7,49.3,-100.00,NNE,30,8.0,15.0,95,0.08,,,0.38,meteohub,2013-01-09 12:48:00,
2013-01-09 06:49:00,50.7,49.3,-100.00,NE,36,16.0,16.0,95,0.08,,,0.38,meteohub,2013-01-09 12:49:00,
2013-01-09 06:52:00,50.7,49.3,-100.00,NE,55,8.0,16.0,95,0.08,,,0.39,meteohub,2013-01-09 12:52:00,
2013-01-09 06:53:00,50.7,49.3,-100.00,NE,53,13.0,16.0,95,0.08,,,0.39,meteohub,2013-01-09 12:53:00,
2013-01-09 06:54:00,50.7,49.3,-100.00,NE,48,11.0,16.0,95,0.08,,,0.39,meteohub,2013-01-09 12:54:00,
2013-01-09 06:58:00,50.7,49.3,-100.00,NE,43,9.0,20.0,95,0.08,,,0.40,meteohub,2013-01-09 12:58:00,
2013-01-09 06:59:00,50.7,49.3,-100.00,NE,45,7.0,20.0,95,0.08,,,0.40,meteohub,2013-01-09 12:59:00,
2013-01-09 07:00:00,51.1,49.6,-100.00,NE,50,10.0,20.0,95,0.08,,,0.40,meteohub,2013-01-09 13:00:00,
2013-01-09 07:03:00,51.1,49.6,-100.00,NE,42,7.0,20.0,95,0.07,,,0.40,meteohub,2013-01-09 13:03:00,
2013-01-09 07:04:00,51.1,49.6,-100.00,NE,51,7.0,20.0,95,0.07,,,0.40,meteohub,2013-01-09 13:04:00,
2013-01-09 07:05:00,51.1,49.6,-100.00,NE,55,12.0,16.0,95,0.07,,,0.41,meteohub,2013-01-09 13:05:00,
2013-01-09 07:09:00,51.1,49.6,-100.00,NE,37,8.0,16.0,95,0.07,,,0.41,meteohub,2013-01-09 13:09:00,
2013-01-09 07:11:00,51.1,49.6,-100.00,NE,46,9.0,18.0,95,0.06,,,0.41,meteohub,2013-01-09 13:11:00,
2013-01-09 07:14:00,51.1,49.6,-100.00,NE,45,9.0,18.0,95,0.06,,,0.41,meteohub,2013-01-09 13:14:00,
2013-01-09 07:16:00,51.1,49.6,-100.00,NE,49,9.0,18.0,95,0.06,,,0.42,meteohub,2013-01-09 13:16:00,
2013-01-09 07:17:00,51.1,49.6,-100.00,NE,54,11.0,18.0,95,0.06,,,0.42,meteohub,2013-01-09 13:17:00,
2013-01-09 07:19:00,51.3,49.8,-100.00,NE,42,11.0,18.0,95,0.06,,,0.42,meteohub,2013-01-09 13:19:00,
2013-01-09 07:21:00,51.3,49.8,-100.00,NE,49,7.0,18.0,95,0.06,,,0.43,meteohub,2013-01-09 13:21:00,
2013-01-09 07:22:00,51.3,49.8,-100.00,NE,51,9.0,18.0,95,0.06,,,0.43,meteohub,2013-01-09 13:22:00,
2013-01-09 07:24:00,51.3,49.8,-100.00,ENE,60,10.0,18.0,95,0.06,,,0.43,meteohub,2013-01-09 13:24:00,
2013-01-09 07:26:00,51.3,49.8,-100.00,NE,50,9.0,17.0,95,0.07,,,0.44,meteohub,2013-01-09 13:26:00,
2013-01-09 07:28:00,51.3,49.8,-100.00,NE,39,15.0,17.0,95,0.07,,,0.44,meteohub,2013-01-09 13:28:00,
2013-01-09 07:29:00,51.4,50.0,-100.00,NE,41,12.0,17.0,95,0.07,,,0.44,meteohub,2013-01-09 13:29:00,
2013-01-09 07:30:00,51.4,50.0,-100.00,ENE,60,11.0,17.0,95,0.08,,,0.45,meteohub,2013-01-09 13:30:00,
2013-01-09 07:31:00,51.4,50.0,-100.00,NE,41,10.0,17.0,95,0.08,,,0.45,meteohub,2013-01-09 13:31:00,
2013-01-09 07:33:00,51.4,50.0,-100.00,NE,55,11.0,17.0,95,0.08,,,0.45,meteohub,2013-01-09 13:33:00,
2013-01-09 07:34:00,51.4,50.0,-100.00,NE,49,6.0,17.0,95,0.08,,,0.45,meteohub,2013-01-09 13:34:00,
2013-01-09 07:36:00,51.4,50.0,-100.00,NE,49,14.0,16.0,95,0.08,,,0.46,meteohub,2013-01-09 13:36:00,
2013-01-09 07:37:00,51.4,50.0,-100.00,ENE,59,11.0,16.0,95,0.08,,,0.46,meteohub,2013-01-09 13:37:00,
2013-01-09 07:38:00,51.4,50.0,-100.00,NE,40,13.0,16.0,95,0.08,,,0.46,meteohub,2013-01-09 13:38:00,
2013-01-09 07:39:00,51.6,50.2,-100.00,NNE,30,11.0,16.0,95,0.08,,,0.46,meteohub,2013-01-09 13:39:00,
2013-01-09 07:41:00,51.6,50.2,-100.00,NE,40,14.0,16.0,95,0.09,,,0.47,meteohub,2013-01-09 13:41:00,
2013-01-09 07:42:00,51.6,50.2,-100.00,NE,47,13.0,16.0,95,0.09,,,0.47,meteohub,2013-01-09 13:42:00,
2013-01-09 07:44:00,51.6,50.2,-100.00,NE,40,12.0,16.0,95,0.09,,,0.47,meteohub,2013-01-09 13:44:00,
2013-01-09 07:45:00,51.6,50.2,-100.00,NE,48,12.0,16.0,95,0.09,,,0.48,meteohub,2013-01-09 13:45:00,
2013-01-09 07:46:00,51.6,50.2,-100.00,NE,46,14.0,16.0,95,0.09,,,0.48,meteohub,2013-01-09 13:46:00,
2013-01-09 07:47:00,51.6,50.2,-100.00,ENE,59,13.0,16.0,95,0.09,,,0.48,meteohub,2013-01-09 13:47:00,
2013-01-09 07:49:00,51.6,50.2,-100.00,ENE,61,8.0,16.0,95,0.09,,,0.48,meteohub,2013-01-09 13:49:00,
2013-01-09 07:50:00,51.6,50.2,-100.00,NE,49,5.0,18.0,95,0.10,,,0.49,meteohub,2013-01-09 13:50:00,
2013-01-09 07:51:00,51.6,50.2,-100.00,NE,38,12.0,18.0,95,0.10,,,0.49,meteohub,2013-01-09 13:51:00,
2013-01-09 07:52:00,51.6,50.2,-100.00,ENE,59,7.0,18.0,95,0.10,,,0.49,meteohub,2013-01-09 13:52:00,
2013-01-09 07:54:00,51.6,50.2,-100.00,NE,36,12.0,18.0,95,0.10,,,0.49,meteohub,2013-01-09 13:54:00,
2013-01-09 07:55:00,51.6,50.2,-100.00,NE,50,13.0,18.0,95,0.11,,,0.51,meteohub,2013-01-09 13:55:00,
2013-01-09 07:56:00,51.6,50.2,-100.00,NE,42,11.0,18.0,95,0.11,,,0.51,meteohub,2013-01-09 13:56:00,
2013-01-09 07:57:00,52.0,50.5,-100.00,NE,46,11.0,18.0,95,0.11,,,0.51,meteohub,2013-01-09 13:57:00,
2013-01-09 07:59:00,52.0,50.5,-100.00,ENE,58,5.0,18.0,95,0.11,,,0.51,meteohub,2013-01-09 13:59:00,
2013-01-09 08:01:00,52.0,50.5,-100.00,NE,42,13.0,18.0,95,0.11,,,0.51,meteohub,2013-01-09 14:01:00,
2013-01-09 08:02:00,52.0,50.5,-100.00,ENE,58,10.0,18.0,95,0.11,,,0.51,meteohub,2013-01-09 14:02:00,
2013-01-09 08:03:00,52.0,50.5,-100.00,ENE,57,5.0,18.0,95,0.11,,,0.51,meteohub,2013-01-09 14:03:00,
2013-01-09 08:06:00,52.0,50.5,-100.00,ENE,60,10.0,17.0,95,0.11,,,0.52,meteohub,2013-01-09 14:06:00,
2013-01-09 08:07:00,52.0,50.5,-100.00,ENE,59,10.0,17.0,95,0.11,,,0.52,meteohub,2013-01-09 14:07:00,
2013-01-09 08:09:00,52.0,50.5,-100.00,NE,52,9.0,17.0,95,0.11,,,0.52,meteohub,2013-01-09 14:09:00,
2013-01-09 08:11:00,52.0,50.5,-100.00,ENE,64,7.0,17.0,95,0.10,,,0.52,meteohub,2013-01-09 14:11:00,
2013-01-09 08:12:00,52.0,50.5,-100.00,NE,56,10.0,17.0,95,0.10,,,0.52,meteohub,2013-01-09 14:12:00,
2013-01-09 08:14:00,52.0,50.5,-100.00,ENE,76,14.0,17.0,95,0.10,,,0.52,meteohub,2013-01-09 14:14:00,
2013-01-09 08:16:00,52.2,50.7,-100.00,ENE,72,10.0,18.0,95,0.11,,,0.53,meteohub,2013-01-09 14:16:00,
2013-01-09 08:18:00,52.2,50.7,-100.00,ENE,58,9.0,18.0,95,0.11,,,0.53,meteohub,2013-01-09 14:18:00,
2013-01-09 08:19:00,52.2,50.7,-100.00,ENE,63,6.0,18.0,95,0.11,,,0.53,meteohub,2013-01-09 14:19:00,
2013-01-09 08:21:00,52.2,50.7,-100.00,NE,55,12.0,18.0,95,0.10,,,0.53,meteohub,2013-01-09 14:21:00,
2013-01-09 08:22:00,52.2,50.7,-100.00,ENE,59,10.0,18.0,95,0.10,,,0.53,meteohub,2013-01-09 14:22:00,
2013-01-09 08:23:00,52.3,50.9,-100.00,NE,55,7.0,18.0,95,0.10,,,0.53,meteohub,2013-01-09 14:23:00,
2013-01-09 08:24:00,52.3,50.9,-100.00,ENE,67,13.0,18.0,95,0.10,,,0.53,meteohub,2013-01-09 14:24:00,
2013-01-09 08:26:00,52.3,50.9,-100.00,ENE,57,3.0,18.0,95,0.10,,,0.54,meteohub,2013-01-09 14:26:00,
2013-01-09 08:27:00,52.3,50.9,-100.00,ENE,57,11.0,18.0,95,0.10,,,0.54,meteohub,2013-01-09 14:27:00,
2013-01-09 08:28:00,52.3,50.9,-100.00,ENE,63,7.0,18.0,95,0.10,,,0.54,meteohub,2013-01-09 14:28:00,
2013-01-09 08:30:00,52.3,50.9,-100.00,ENE,58,5.0,18.0,95,0.10,,,0.54,meteohub,2013-01-09 14:30:00,
2013-01-09 08:32:00,52.3,50.9,-100.00,ENE,67,11.0,17.0,95,0.09,,,0.54,meteohub,2013-01-09 14:32:00,
2013-01-09 08:33:00,52.5,51.1,-100.00,ENE,67,12.0,17.0,95,0.09,,,0.54,meteohub,2013-01-09 14:33:00,
2013-01-09 08:35:00,52.5,51.1,-100.00,NE,45,10.0,17.0,95,0.09,,,0.55,meteohub,2013-01-09 14:35:00,
2013-01-09 08:37:00,52.5,51.4,-100.00,ENE,64,10.0,17.0,96,0.09,,,0.55,meteohub,2013-01-09 14:37:00,
2013-01-09 08:38:00,52.5,51.1,-100.00,NE,51,12.0,17.0,95,0.09,,,0.55,meteohub,2013-01-09 14:38:00,
2013-01-09 08:40:00,52.5,51.1,-100.00,ENE,59,8.0,17.0,95,0.08,,,0.55,meteohub,2013-01-09 14:40:00,
2013-01-09 08:42:00,52.5,51.1,-100.00,ENE,63,9.0,17.0,95,0.08,,,0.55,meteohub,2013-01-09 14:42:00,
2013-01-09 08:43:00,52.5,51.1,-100.00,ENE,62,10.0,17.0,95,0.08,,,0.55,meteohub,2013-01-09 14:43:00,
2013-01-09 08:44:00,52.5,51.1,-100.00,ENE,61,11.0,17.0,95,0.08,,,0.55,meteohub,2013-01-09 14:44:00,
2013-01-09 08:45:00,52.5,51.1,-100.00,ENE,65,6.0,17.0,95,0.08,,,0.56,meteohub,2013-01-09 14:45:00,
2013-01-09 08:47:00,52.5,51.1,-100.00,ENE,59,6.0,17.0,95,0.08,,,0.56,meteohub,2013-01-09 14:47:00,
2013-01-09 08:48:00,52.5,51.1,-100.00,ENE,59,4.0,17.0,95,0.08,,,0.56,meteohub,2013-01-09 14:48:00,
2013-01-09 08:49:00,52.5,51.1,-100.00,ENE,65,10.0,17.0,95,0.08,,,0.56,meteohub,2013-01-09 14:49:00,
2013-01-09 08:50:00,52.5,51.1,-100.00,ENE,60,9.0,16.0,95,0.06,,,0.56,meteohub,2013-01-09 14:50:00,
2013-01-09 08:52:00,52.5,51.1,-100.00,ENE,68,6.0,16.0,95,0.06,,,0.56,meteohub,2013-01-09 14:52:00,
2013-01-09 08:53:00,52.5,51.1,-100.00,NE,52,7.0,16.0,95,0.06,,,0.56,meteohub,2013-01-09 14:53:00,
2013-01-09 08:54:00,52.5,51.1,-100.00,ENE,61,9.0,16.0,95,0.06,,,0.56,meteohub,2013-01-09 14:54:00,
2013-01-09 08:56:00,52.5,51.1,-100.00,ENE,60,11.0,15.0,95,0.06,,,0.57,meteohub,2013-01-09 14:56:00,
2013-01-09 08:58:00,52.5,51.1,-100.00,NE,50,10.0,15.0,95,0.06,,,0.57,meteohub,2013-01-09 14:58:00,
2013-01-09 08:59:00,52.5,51.1,-100.00,ENE,75,6.0,15.0,95,0.06,,,0.57,meteohub,2013-01-09 14:59:00,
2013-01-09 09:00:00,52.5,51.1,-100.00,East,80,10.0,15.0,95,0.06,,,0.58,meteohub,2013-01-09 15:00:00,
2013-01-09 09:01:00,52.5,51.1,-100.00,ENE,66,12.0,15.0,95,0.07,,,0.58,meteohub,2013-01-09 15:01:00,
2013-01-09 09:03:00,52.9,51.4,-100.00,NE,50,11.0,15.0,95,0.07,,,0.58,meteohub,2013-01-09 15:03:00,
2013-01-09 09:04:00,52.9,51.4,-100.00,ENE,64,6.0,15.0,95,0.07,,,0.58,meteohub,2013-01-09 15:04:00,
2013-01-09 09:05:00,52.9,51.4,-100.00,NE,52,7.0,15.0,95,0.06,,,0.58,meteohub,2013-01-09 15:05:00,
2013-01-09 09:06:00,52.9,51.4,-100.00,ENE,59,12.0,15.0,95,0.06,,,0.58,meteohub,2013-01-09 15:06:00,
2013-01-09 09:09:00,52.9,51.4,-100.00,ENE,64,10.0,15.0,95,0.06,,,0.58,meteohub,2013-01-09 15:09:00,
2013-01-09 09:10:00,52.9,51.4,-100.00,ENE,63,8.0,15.0,95,0.06,,,0.58,meteohub,2013-01-09 15:10:00,
2013-01-09 09:11:00,52.9,51.4,-100.00,ENE,61,9.0,15.0,95,0.06,,,0.58,meteohub,2013-01-09 15:11:00,
2013-01-09 09:14:00,52.9,51.4,-100.00,ENE,74,9.0,15.0,95,0.06,,,0.58,meteohub,2013-01-09 15:14:00,
2013-01-09 09:16:00,52.9,51.4,-100.00,NE,53,10.0,17.0,95,0.06,,,0.59,meteohub,2013-01-09 15:16:00,
2013-01-09 09:17:00,52.9,51.4,-100.00,ENE,62,10.0,17.0,95,0.06,,,0.59,meteohub,2013-01-09 15:17:00,
2013-01-09 09:19:00,52.9,51.4,-100.00,ENE,59,8.0,17.0,95,0.06,,,0.59,meteohub,2013-01-09 15:19:00,
2013-01-09 09:21:00,52.9,51.4,-100.00,NE,48,6.0,17.0,95,0.06,,,0.60,meteohub,2013-01-09 15:21:00,
2013-01-09 09:22:00,52.9,51.4,-100.00,ENE,72,12.0,17.0,95,0.06,,,0.60,meteohub,2013-01-09 15:22:00,
2013-01-09 09:25:00,52.9,51.4,-100.00,ENE,63,5.0,17.0,95,0.06,,,0.60,meteohub,2013-01-09 15:25:00,
2013-01-09 09:26:00,52.9,51.4,-100.00,ENE,58,10.0,15.0,95,0.06,,,0.60,meteohub,2013-01-09 15:26:00,
2013-01-09 09:27:00,52.9,51.4,-100.00,ENE,63,10.0,15.0,95,0.06,,,0.60,meteohub,2013-01-09 15:27:00,
2013-01-09 09:28:00,52.9,51.4,-100.00,NE,50,11.0,15.0,95,0.06,,,0.60,meteohub,2013-01-09 15:28:00,
2013-01-09 09:30:00,52.9,51.4,-100.00,NE,56,7.0,16.0,95,0.06,,,0.60,meteohub,2013-01-09 15:30:00,
2013-01-09 09:31:00,52.9,51.4,-100.00,ENE,57,9.0,16.0,95,0.06,,,0.60,meteohub,2013-01-09 15:31:00,
2013-01-09 09:32:00,52.9,51.4,-100.00,NE,52,14.0,16.0,95,0.06,,,0.60,meteohub,2013-01-09 15:32:00,
2013-01-09 09:33:00,52.9,51.4,-100.00,NE,42,7.0,16.0,95,0.06,,,0.60,meteohub,2013-01-09 15:33:00,
2013-01-09 09:36:00,52.9,51.4,-100.00,ENE,63,9.0,18.0,95,0.05,,,0.60,meteohub,2013-01-09 15:36:00,
2013-01-09 09:37:00,52.9,51.4,-100.00,NE,55,8.0,18.0,95,0.05,,,0.60,meteohub,2013-01-09 15:37:00,
2013-01-09 09:39:00,52.9,51.4,-100.00,NE,53,11.0,18.0,95,0.05,,,0.60,meteohub,2013-01-09 15:39:00,
2013-01-09 09:41:00,53.1,51.6,-100.00,NE,50,11.0,18.0,95,0.06,,,0.61,meteohub,2013-01-09 15:41:00,
2013-01-09 09:42:00,53.1,51.6,-100.00,NE,53,12.0,18.0,95,0.06,,,0.61,meteohub,2013-01-09 15:42:00,
2013-01-09 09:43:00,53.1,51.6,-100.00,ENE,59,7.0,18.0,95,0.06,,,0.61,meteohub,2013-01-09 15:43:00,
2013-01-09 09:44:00,53.1,51.6,-100.00,NE,53,6.0,18.0,95,0.06,,,0.61,meteohub,2013-01-09 15:44:00,
2013-01-09 09:47:00,53.1,51.6,-100.00,ENE,69,12.0,16.0,95,0.06,,,0.62,meteohub,2013-01-09 15:47:00,
2013-01-09 09:48:00,53.1,51.6,-100.00,ENE,65,5.0,16.0,95,0.06,,,0.62,meteohub,2013-01-09 15:48:00,
2013-01-09 09:49:00,53.1,51.6,-100.00,ENE,59,6.0,16.0,95,0.06,,,0.62,meteohub,2013-01-09 15:49:00,
2013-01-09 09:52:00,53.2,51.8,-100.00,ENE,65,5.0,17.0,95,0.05,,,0.62,meteohub,2013-01-09 15:52:00,
2013-01-09 09:53:00,53.2,51.8,-100.00,NE,55,11.0,17.0,95,0.05,,,0.62,meteohub,2013-01-09 15:53:00,
2013-01-09 09:54:00,53.2,51.8,-100.00,ENE,62,7.0,17.0,95,0.05,,,0.62,meteohub,2013-01-09 15:54:00,
2013-01-09 09:57:00,53.2,51.8,-100.00,ENE,61,10.0,17.0,95,0.05,,,0.62,meteohub,2013-01-09 15:57:00,
2013-01-09 09:58:00,53.2,51.8,-100.00,ENE,78,8.0,17.0,95,0.05,,,0.62,meteohub,2013-01-09 15:58:00,
2013-01-09 09:59:00,53.2,51.8,-100.00,ENE,59,10.0,17.0,95,0.05,,,0.62,meteohub,2013-01-09 15:59:00,
2013-01-09 10:02:00,53.2,51.8,-100.00,ENE,61,8.0,14.0,95,0.05,,,0.63,meteohub,2013-01-09 16:02:00,
2013-01-09 10:03:00,53.2,51.8,-100.00,NE,54,11.0,14.0,95,0.05,,,0.63,meteohub,2013-01-09 16:03:00,
2013-01-09 10:04:00,53.2,51.8,-100.00,ENE,69,5.0,14.0,95,0.05,,,0.63,meteohub,2013-01-09 16:04:00,
2013-01-09 10:07:00,53.2,51.8,-100.00,ENE,71,5.0,14.0,95,0.05,,,0.63,meteohub,2013-01-09 16:07:00,
2013-01-09 10:08:00,53.2,51.8,-100.00,ENE,67,6.0,14.0,95,0.05,,,0.63,meteohub,2013-01-09 16:08:00,
2013-01-09 10:09:00,53.2,51.8,-100.00,ENE,60,5.0,14.0,95,0.05,,,0.63,meteohub,2013-01-09 16:09:00,
2013-01-09 10:13:00,53.2,51.8,-100.00,ENE,70,6.0,14.0,95,0.05,,,0.64,meteohub,2013-01-09 16:13:00,
2013-01-09 10:14:00,53.2,51.8,-100.00,ENE,63,6.0,14.0,95,0.05,,,0.64,meteohub,2013-01-09 16:14:00,
2013-01-09 10:18:00,53.2,51.8,-100.00,ENE,65,8.0,11.0,95,0.07,,,0.66,meteohub,2013-01-09 16:18:00,
2013-01-09 10:19:00,53.2,51.8,-100.00,East,81,10.0,11.0,95,0.07,,,0.66,meteohub,2013-01-09 16:19:00,
2013-01-09 10:20:00,53.2,51.8,-100.00,ENE,69,4.0,11.0,95,0.07,,,0.68,meteohub,2013-01-09 16:20:00,
2013-01-09 10:23:00,53.2,51.8,-100.00,ENE,64,7.0,10.0,95,0.08,,,0.68,meteohub,2013-01-09 16:23:00,
2013-01-09 10:24:00,53.4,52.0,-100.00,ENE,59,5.0,10.0,95,0.08,,,0.68,meteohub,2013-01-09 16:24:00,
2013-01-09 10:25:00,53.4,52.0,-100.00,ENE,59,7.0,10.0,95,0.08,,,0.69,meteohub,2013-01-09 16:25:00,
2013-01-09 10:29:00,53.4,52.0,-100.00,ENE,62,7.0,10.0,95,0.09,,,0.69,meteohub,2013-01-09 16:29:00,
2013-01-09 10:30:00,53.4,52.0,-100.00,ENE,65,6.0,13.0,95,0.13,,,0.73,meteohub,2013-01-09 16:30:00,
2013-01-09 10:31:00,53.4,52.0,-100.00,ENE,71,10.0,13.0,95,0.13,,,0.73,meteohub,2013-01-09 16:31:00,
2013-01-09 10:34:00,53.4,52.0,-100.00,East,88,10.0,13.0,95,0.13,,,0.73,meteohub,2013-01-09 16:34:00,
2013-01-09 10:35:00,53.4,52.0,-100.00,East,79,4.0,13.0,95,0.16,,,0.77,meteohub,2013-01-09 16:35:00,
2013-01-09 10:36:00,53.6,52.2,-100.00,ENE,62,5.0,13.0,95,0.16,,,0.77,meteohub,2013-01-09 16:36:00,
2013-01-09 10:39:00,53.6,52.2,-100.00,ENE,63,5.0,13.0,95,0.16,,,0.77,meteohub,2013-01-09 16:39:00,
2013-01-09 10:40:00,53.6,52.2,-100.00,ENE,68,11.0,13.0,95,0.19,,,0.80,meteohub,2013-01-09 16:40:00,
2013-01-09 10:41:00,53.6,52.2,-100.00,ENE,62,8.0,13.0,95,0.19,,,0.80,meteohub,2013-01-09 16:41:00,
2013-01-09 10:44:00,53.6,52.2,-100.00,ENE,77,6.0,13.0,95,0.19,,,0.80,meteohub,2013-01-09 16:44:00,
2013-01-09 10:45:00,53.6,52.2,-100.00,ENE,73,10.0,13.0,95,0.21,,,0.83,meteohub,2013-01-09 16:45:00,
2013-01-09 10:46:00,53.6,52.2,-100.00,ENE,76,8.0,13.0,95,0.21,,,0.83,meteohub,2013-01-09 16:46:00,
2013-01-09 10:47:00,53.6,52.2,-100.00,ENE,72,7.0,13.0,95,0.21,,,0.83,meteohub,2013-01-09 16:47:00,
2013-01-09 10:49:00,53.6,52.2,-100.00,ENE,57,10.0,13.0,95,0.21,,,0.83,meteohub,2013-01-09 16:49:00,
2013-01-09 10:50:00,53.6,52.2,-100.00,ENE,67,7.0,13.0,95,0.24,,,0.84,meteohub,2013-01-09 16:50:00,
2013-01-09 10:51:00,53.6,52.2,-100.00,ENE,68,7.0,13.0,95,0.24,,,0.84,meteohub,2013-01-09 16:51:00,
2013-01-09 10:52:00,53.6,52.2,-100.00,East,85,10.0,13.0,95,0.24,,,0.84,meteohub,2013-01-09 16:52:00,
2013-01-09 10:54:00,53.6,52.2,-100.00,ENE,64,11.0,13.0,95,0.24,,,0.84,meteohub,2013-01-09 16:54:00,
2013-01-09 10:55:00,53.6,52.2,-100.00,ENE,71,13.0,13.0,95,0.25,,,0.87,meteohub,2013-01-09 16:55:00,
2013-01-09 10:56:00,53.6,52.2,-100.00,ENE,63,8.0,13.0,95,0.25,,,0.87,meteohub,2013-01-09 16:56:00,
2013-01-09 10:57:00,53.6,52.2,-100.00,East,79,7.0,13.0,95,0.25,,,0.87,meteohub,2013-01-09 16:57:00,
2013-01-09 11:00:00,53.8,52.3,-100.00,ENE,63,7.0,13.0,95,0.25,,,0.88,meteohub,2013-01-09 17:00:00,
2013-01-09 11:01:00,53.8,52.3,-100.00,East,80,10.0,13.0,95,0.25,,,0.88,meteohub,2013-01-09 17:01:00,
2013-01-09 11:03:00,53.8,52.3,-100.00,ENE,76,9.0,13.0,95,0.25,,,0.88,meteohub,2013-01-09 17:03:00,
2013-01-09 11:05:00,53.8,52.3,-100.00,ENE,72,9.0,17.0,95,0.27,,,0.90,meteohub,2013-01-09 17:05:00,
2013-01-09 11:06:00,53.8,52.3,-100.00,ENE,78,9.0,17.0,95,0.27,,,0.90,meteohub,2013-01-09 17:06:00,
2013-01-09 11:07:00,53.8,52.3,-100.00,East,86,12.0,17.0,95,0.27,,,0.90,meteohub,2013-01-09 17:07:00,
2013-01-09 11:08:00,53.8,52.3,-100.00,ENE,75,12.0,17.0,95,0.27,,,0.90,meteohub,2013-01-09 17:08:00,
2013-01-09 11:11:00,53.8,52.3,-100.00,ENE,61,9.0,17.0,95,0.27,,,0.92,meteohub,2013-01-09 17:11:00,
2013-01-09 11:12:00,53.8,52.3,-100.00,ENE,69,7.0,17.0,95,0.27,,,0.92,meteohub,2013-01-09 17:12:00,
2013-01-09 11:13:00,53.8,52.3,-100.00,East,80,7.0,17.0,95,0.27,,,0.92,meteohub,2013-01-09 17:13:00,
2013-01-09 11:17:00,53.8,52.3,-100.00,ENE,61,10.0,14.0,95,0.26,,,0.93,meteohub,2013-01-09 17:17:00,
2013-01-09 11:18:00,53.8,52.3,-100.00,East,84,9.0,14.0,95,0.26,,,0.93,meteohub,2013-01-09 17:18:00,
2013-01-09 11:22:00,54.0,52.5,-100.00,ENE,67,7.0,15.0,95,0.25,,,0.94,meteohub,2013-01-09 17:22:00,
2013-01-09 11:23:00,54.0,52.5,-100.00,ENE,72,10.0,15.0,95,0.25,,,0.94,meteohub,2013-01-09 17:23:00,
2013-01-09 11:27:00,54.0,52.5,-100.00,ENE,73,8.0,15.0,95,0.25,,,0.96,meteohub,2013-01-09 17:27:00,
2013-01-09 11:29:00,54.0,52.5,-100.00,ENE,77,10.0,15.0,95,0.25,,,0.96,meteohub,2013-01-09 17:29:00,
2013-01-09 11:32:00,54.0,52.5,-100.00,ENE,72,9.0,16.0,95,0.24,,,0.98,meteohub,2013-01-09 17:32:00,
2013-01-09 11:33:00,54.0,52.5,-100.00,ENE,65,11.0,16.0,95,0.24,,,0.98,meteohub,2013-01-09 17:33:00,
2013-01-09 11:34:00,54.0,52.5,-100.00,ENE,71,11.0,16.0,95,0.24,,,0.98,meteohub,2013-01-09 17:34:00,
2013-01-09 11:35:00,54.0,52.5,-100.00,ENE,67,10.0,16.0,95,0.24,,,0.98,meteohub,2013-01-09 17:35:00,
2013-01-09 11:38:00,54.1,52.7,-100.00,ENE,70,15.0,16.0,95,0.22,,,0.99,meteohub,2013-01-09 17:38:00,
2013-01-09 11:39:00,54.1,52.7,-100.00,East,82,11.0,16.0,95,0.22,,,0.99,meteohub,2013-01-09 17:39:00,
2013-01-09 11:40:00,54.1,52.7,-100.00,ENE,73,11.0,16.0,95,0.22,,,0.99,meteohub,2013-01-09 17:40:00,
2013-01-09 11:43:00,54.1,52.7,-100.00,ENE,60,11.0,18.0,95,0.20,,,1.01,meteohub,2013-01-09 17:43:00,
2013-01-09 11:44:00,54.1,52.7,-100.00,ENE,78,9.0,18.0,95,0.20,,,1.01,meteohub,2013-01-09 17:44:00,
2013-01-09 11:45:00,54.1,52.7,-100.00,East,89,13.0,18.0,95,0.20,,,1.03,meteohub,2013-01-09 17:45:00,
2013-01-09 11:48:00,54.1,52.7,-100.00,East,79,11.0,18.0,95,0.20,,,1.03,meteohub,2013-01-09 17:48:00,
2013-01-09 11:50:00,54.1,52.7,-100.00,ENE,67,17.0,18.0,95,0.20,,,1.03,meteohub,2013-01-09 17:50:00,
2013-01-09 11:54:00,54.1,52.7,-100.00,ENE,76,14.0,18.0,95,0.20,,,1.06,meteohub,2013-01-09 17:54:00,
2013-01-09 11:55:00,54.1,52.7,-100.00,ENE,67,10.0,18.0,95,0.20,,,1.08,meteohub,2013-01-09 17:55:00,
2013-01-09 11:56:00,54.1,52.7,-100.00,NE,52,10.0,19.0,95,0.20,,,1.08,meteohub,2013-01-09 17:56:00,
2013-01-09 11:59:00,54.1,52.7,-100.00,ENE,69,7.0,19.0,95,0.20,,,1.08,meteohub,2013-01-09 17:59:00,
2013-01-09 12:00:00,54.1,52.7,-100.00,ENE,74,10.0,19.0,95,0.20,,,1.10,meteohub,2013-01-09 18:00:00,
2013-01-09 12:01:00,54.1,52.7,-100.00,ENE,74,14.0,19.0,95,0.20,,,1.10,meteohub,2013-01-09 18:01:00,
2013-01-09 12:04:00,54.1,52.7,-100.00,ENE,58,13.0,19.0,95,0.20,,,1.10,meteohub,2013-01-09 18:04:00,
2013-01-09 12:06:00,54.1,52.7,-100.00,ENE,66,8.0,19.0,95,0.20,,,1.11,meteohub,2013-01-09 18:06:00,
2013-01-09 12:09:00,54.1,52.7,-100.00,ENE,62,9.0,19.0,95,0.20,,,1.11,meteohub,2013-01-09 18:09:00,
2013-01-09 12:10:00,54.1,52.7,-100.00,NE,54,6.0,19.0,95,0.20,,,1.11,meteohub,2013-01-09 18:10:00,
2013-01-09 12:11:00,54.1,52.7,-100.00,ENE,64,10.0,17.0,95,0.20,,,1.12,meteohub,2013-01-09 18:11:00,
2013-01-09 12:15:00,54.1,52.7,-100.00,ENE,62,5.0,17.0,95,0.20,,,1.12,meteohub,2013-01-09 18:15:00,
2013-01-09 12:16:00,54.1,52.7,-100.00,NE,51,12.0,17.0,95,0.18,,,1.12,meteohub,2013-01-09 18:16:00,
2013-01-09 12:20:00,54.1,52.7,-100.00,ENE,67,9.0,17.0,95,0.18,,,1.13,meteohub,2013-01-09 18:20:00,
2013-01-09 12:21:00,54.1,52.7,-100.00,East,80,17.0,17.0,95,0.18,,,1.13,meteohub,2013-01-09 18:21:00,
2013-01-09 12:22:00,54.1,52.7,-100.00,ENE,67,9.0,16.0,95,0.18,,,1.13,meteohub,2013-01-09 18:22:00,
2013-01-09 12:25:00,54.1,52.7,-100.00,ENE,77,10.0,19.0,95,0.17,,,1.13,meteohub,2013-01-09 18:25:00,
2013-01-09 12:26:00,54.1,52.7,-100.00,ENE,64,9.0,19.0,95,0.17,,,1.13,meteohub,2013-01-09 18:26:00,
2013-01-09 12:27:00,54.1,52.7,-100.00,East,83,13.0,19.0,95,0.17,,,1.13,meteohub,2013-01-09 18:27:00,
2013-01-09 12:31:00,54.3,52.9,-100.00,ENE,78,10.0,19.0,95,0.15,,,1.13,meteohub,2013-01-09 18:31:00,
2013-01-09 12:32:00,54.3,52.9,-100.00,ENE,69,7.0,19.0,95,0.15,,,1.13,meteohub,2013-01-09 18:32:00,
2013-01-09 12:36:00,54.3,52.9,-100.00,ENE,69,9.0,19.0,95,0.14,,,1.14,meteohub,2013-01-09 18:36:00,
2013-01-09 12:37:00,54.3,52.9,-100.00,ENE,78,14.0,19.0,95,0.14,,,1.14,meteohub,2013-01-09 18:37:00,
2013-01-09 12:41:00,54.3,52.9,-100.00,ENE,72,14.0,19.0,95,0.12,,,1.14,meteohub,2013-01-09 18:41:00,
2013-01-09 12:42:00,54.3,52.9,-100.00,East,83,10.0,19.0,95,0.12,,,1.14,meteohub,2013-01-09 18:42:00,
2013-01-09 12:44:00,54.5,53.1,-100.00,ENE,61,9.0,19.0,95,0.12,,,1.14,meteohub,2013-01-09 18:44:00,
2013-01-09 12:45:00,54.5,53.1,-100.00,ENE,67,8.0,19.0,95,0.12,,,1.14,meteohub,2013-01-09 18:45:00,
2013-01-09 12:48:00,54.5,53.1,-100.00,ENE,65,7.0,19.0,95,0.10,,,1.14,meteohub,2013-01-09 18:48:00,
2013-01-09 12:49:00,54.5,53.1,-100.00,ENE,58,6.0,19.0,95,0.10,,,1.14,meteohub,2013-01-09 18:49:00,
2013-01-09 12:54:00,54.5,53.1,-100.00,ENE,78,12.0,18.0,95,0.07,,,1.14,meteohub,2013-01-09 18:54:00,
2013-01-09 12:55:00,54.5,53.1,-100.00,East,79,13.0,18.0,95,0.07,,,1.14,meteohub,2013-01-09 18:55:00,
2013-01-09 12:59:00,54.5,53.1,-100.00,East,86,13.0,18.0,95,0.06,,,1.15,meteohub,2013-01-09 18:59:00,
2013-01-09 13:00:00,54.5,53.1,-100.00,ENE,72,11.0,18.0,95,0.06,,,1.15,meteohub,2013-01-09 19:00:00,
2013-01-09 13:04:00,54.7,53.2,-100.00,ENE,78,13.0,18.0,95,0.04,,,1.15,meteohub,2013-01-09 19:04:00,
2013-01-09 13:05:00,54.7,53.2,-100.00,ENE,78,9.0,18.0,95,0.04,,,1.15,meteohub,2013-01-09 19:05:00,
2013-01-09 13:09:00,54.9,53.4,-100.00,East,85,9.0,18.0,95,0.04,,,1.15,meteohub,2013-01-09 19:09:00,
2013-01-09 13:10:00,54.9,53.4,-100.00,East,84,7.0,18.0,95,0.04,,,1.16,meteohub,2013-01-09 19:10:00,
2013-01-09 13:11:00,54.9,53.4,-100.00,East,79,9.0,17.0,95,0.04,,,1.16,meteohub,2013-01-09 19:11:00,
2013-01-09 13:14:00,55.0,53.6,-100.00,ENE,69,10.0,17.0,95,0.04,,,1.16,meteohub,2013-01-09 19:14:00,
2013-01-09 13:15:00,55.0,53.6,-100.00,ENE,69,7.0,19.0,95,0.06,,,1.18,meteohub,2013-01-09 19:15:00,
2013-01-09 13:16:00,55.0,53.6,-100.00,East,79,10.0,19.0,95,0.06,,,1.18,meteohub,2013-01-09 19:16:00,
2013-01-09 13:19:00,55.0,53.6,-100.00,East,80,10.0,19.0,95,0.06,,,1.18,meteohub,2013-01-09 19:19:00,
2013-01-09 13:20:00,55.0,53.6,-100.00,ENE,57,7.0,19.0,95,0.05,,,1.18,meteohub,2013-01-09 19:20:00,
2013-01-09 13:21:00,55.0,53.6,-100.00,East,82,6.0,19.0,95,0.05,,,1.18,meteohub,2013-01-09 19:21:00,
2013-01-09 13:22:00,55.0,53.6,-100.00,East,80,17.0,19.0,95,0.05,,,1.18,meteohub,2013-01-09 19:22:00,
2013-01-09 13:24:00,55.0,53.6,-100.00,ENE,78,12.0,19.0,95,0.05,,,1.18,meteohub,2013-01-09 19:24:00,
2013-01-09 13:26:00,55.0,53.6,-100.00,ENE,73,11.0,19.0,95,0.07,,,1.20,meteohub,2013-01-09 19:26:00,
2013-01-09 13:27:00,55.0,53.6,-100.00,East,80,9.0,19.0,95,0.07,,,1.20,meteohub,2013-01-09 19:27:00,
2013-01-09 13:29:00,55.0,53.6,-100.00,East,94,11.0,19.0,95,0.07,,,1.20,meteohub,2013-01-09 19:29:00,
2013-01-09 13:32:00,55.0,53.6,-100.00,East,80,9.0,17.0,95,0.08,,,1.21,meteohub,2013-01-09 19:32:00,
2013-01-09 13:33:00,55.0,53.6,-100.00,ENE,78,11.0,17.0,95,0.08,,,1.21,meteohub,2013-01-09 19:33:00,
2013-01-09 13:35:00,55.2,53.8,-100.00,ENE,69,9.0,17.0,95,0.08,,,1.22,meteohub,2013-01-09 19:35:00,
2013-01-09 13:37:00,55.2,53.8,-100.00,East,82,9.0,17.0,95,0.08,,,1.22,meteohub,2013-01-09 19:37:00,
2013-01-09 13:39:00,55.2,53.8,-100.00,East,80,10.0,17.0,95,0.08,,,1.22,meteohub,2013-01-09 19:39:00,
2013-01-09 13:40:00,55.2,53.8,-100.00,ENE,78,11.0,16.0,95,0.08,,,1.22,meteohub,2013-01-09 19:40:00,
2013-01-09 13:42:00,55.4,54.0,-100.00,ENE,78,11.0,16.0,95,0.08,,,1.22,meteohub,2013-01-09 19:42:00,
2013-01-09 13:44:00,55.4,54.0,-100.00,East,84,15.0,16.0,95,0.08,,,1.22,meteohub,2013-01-09 19:44:00,
2013-01-09 13:45:00,55.4,54.0,-100.00,East,83,9.0,19.0,95,0.09,,,1.23,meteohub,2013-01-09 19:45:00,
2013-01-09 13:47:00,55.4,54.0,-100.00,ENE,71,12.0,19.0,95,0.09,,,1.23,meteohub,2013-01-09 19:47:00,
2013-01-09 13:50:00,55.4,54.0,-100.00,East,80,10.0,19.0,95,0.09,,,1.23,meteohub,2013-01-09 19:50:00,
2013-01-09 13:53:00,55.4,54.0,-100.00,East,79,10.0,19.0,95,0.08,,,1.23,meteohub,2013-01-09 19:53:00,
2013-01-09 13:55:00,55.6,54.1,-100.00,East,94,14.0,18.0,95,0.09,,,1.24,meteohub,2013-01-09 19:55:00,
2013-01-09 13:56:00,55.6,54.1,-100.00,East,86,15.0,18.0,95,0.09,,,1.24,meteohub,2013-01-09 19:56:00,
2013-01-09 13:58:00,55.6,54.1,-100.00,East,84,10.0,18.0,95,0.09,,,1.24,meteohub,2013-01-09 19:58:00,
2013-01-09 14:01:00,55.6,54.1,-100.00,East,81,15.0,18.0,95,0.09,,,1.24,meteohub,2013-01-09 20:01:00,
2013-01-09 14:02:00,55.6,54.1,-100.00,East,93,16.0,18.0,95,0.09,,,1.24,meteohub,2013-01-09 20:02:00,
2013-01-09 14:03:00,55.4,54.0,-100.00,ENE,76,16.0,18.0,95,0.09,,,1.24,meteohub,2013-01-09 20:03:00,
2013-01-09 14:06:00,55.6,54.1,-100.00,ENE,77,17.0,19.0,95,0.08,,,1.24,meteohub,2013-01-09 20:06:00,
2013-01-09 14:07:00,55.6,54.1,-100.00,East,80,10.0,19.0,95,0.08,,,1.24,meteohub,2013-01-09 20:07:00,
2013-01-09 14:08:00,55.6,54.1,-100.00,East,82,10.0,19.0,95,0.08,,,1.24,meteohub,2013-01-09 20:08:00,
2013-01-09 14:11:00,55.6,54.1,-100.00,ENE,76,9.0,21.0,95,0.07,,,1.24,meteohub,2013-01-09 20:11:00,
2013-01-09 14:12:00,55.6,54.1,-100.00,ENE,72,16.0,21.0,95,0.07,,,1.24,meteohub,2013-01-09 20:12:00,
2013-01-09 14:13:00,55.4,54.0,-100.00,East,89,19.0,21.0,95,0.07,,,1.24,meteohub,2013-01-09 20:13:00,
2013-01-09 14:16:00,55.4,54.0,-100.00,ENE,72,11.0,22.0,95,0.07,,,1.25,meteohub,2013-01-09 20:16:00,
2013-01-09 14:17:00,55.4,54.0,-100.00,East,88,19.0,22.0,95,0.07,,,1.25,meteohub,2013-01-09 20:17:00,
2013-01-09 14:18:00,55.4,54.0,-100.00,ENE,77,13.0,22.0,95,0.07,,,1.25,meteohub,2013-01-09 20:18:00,
2013-01-09 14:19:00,55.4,54.0,-100.00,East,92,21.0,22.0,95,0.07,,,1.25,meteohub,2013-01-09 20:19:00,
2013-01-09 14:22:00,55.4,54.0,-100.00,ENE,73,13.0,23.0,95,0.06,,,1.25,meteohub,2013-01-09 20:22:00,
2013-01-09 14:23:00,55.4,54.0,-100.00,East,80,14.0,23.0,95,0.06,,,1.25,meteohub,2013-01-09 20:23:00,
2013-01-09 14:24:00,55.4,54.0,-100.00,ENE,59,11.0,23.0,95,0.06,,,1.25,meteohub,2013-01-09 20:24:00,
2013-01-09 14:27:00,55.4,53.4,-100.00,East,84,19.0,23.0,93,0.05,,,1.25,meteohub,2013-01-09 20:27:00,
2013-01-09 14:28:00,55.4,54.0,-100.00,ENE,69,21.0,23.0,95,0.05,,,1.25,meteohub,2013-01-09 20:28:00,
2013-01-09 14:29:00,55.4,54.0,-100.00,ENE,78,12.0,23.0,95,0.05,,,1.25,meteohub,2013-01-09 20:29:00,
2013-01-09 14:32:00,55.4,54.0,-100.00,East,83,18.0,25.0,95,0.04,,,1.25,meteohub,2013-01-09 20:32:00,
2013-01-09 14:33:00,55.4,54.0,-100.00,East,84,16.0,25.0,95,0.04,,,1.25,meteohub,2013-01-09 20:33:00,
2013-01-09 14:35:00,55.4,54.0,-100.00,NE,51,13.0,25.0,95,0.04,,,1.25,meteohub,2013-01-09 20:35:00,
2013-01-09 14:37:00,55.4,54.0,-100.00,ENE,74,17.0,26.0,95,0.03,,,1.25,meteohub,2013-01-09 20:37:00,
2013-01-09 14:38:00,55.4,54.0,-100.00,ENE,71,10.0,26.0,95,0.03,,,1.25,meteohub,2013-01-09 20:38:00,
2013-01-09 14:40:00,55.4,54.0,-100.00,East,98,18.0,26.0,95,0.03,,,1.25,meteohub,2013-01-09 20:40:00,
2013-01-09 14:42:00,55.6,54.1,-100.00,East,94,17.0,26.0,95,0.02,,,1.25,meteohub,2013-01-09 20:42:00,
2013-01-09 14:43:00,55.6,54.1,-100.00,East,93,21.0,26.0,95,0.02,,,1.25,meteohub,2013-01-09 20:43:00,
2013-01-09 14:44:00,55.6,54.1,-100.00,East,84,14.0,26.0,95,0.02,,,1.25,meteohub,2013-01-09 20:44:00,
2013-01-09 14:45:00,55.6,54.1,-100.00,East,80,11.0,26.0,95,0.02,,,1.25,meteohub,2013-01-09 20:45:00,
2013-01-09 14:48:00,55.6,54.1,-100.00,East,89,14.0,26.0,95,0.02,,,1.25,meteohub,2013-01-09 20:48:00,
2013-01-09 14:49:00,55.6,54.1,-100.00,ESE,103,11.0,26.0,95,0.02,,,1.25,meteohub,2013-01-09 20:49:00,
2013-01-09 14:50:00,55.6,54.1,-100.00,East,80,12.0,24.0,95,0.01,,,1.25,meteohub,2013-01-09 20:50:00,
2013-01-09 14:53:00,55.6,54.0,-100.00,ENE,69,13.0,24.0,94,0.01,,,1.25,meteohub,2013-01-09 20:53:00,
2013-01-09 14:54:00,55.6,54.1,-100.00,East,86,15.0,24.0,95,0.01,,,1.25,meteohub,2013-01-09 20:54:00,
2013-01-09 14:55:00,55.6,54.1,-100.00,NE,49,11.0,24.0,95,0.01,,,1.25,meteohub,2013-01-09 20:55:00,
2013-01-09 14:56:00,55.6,54.0,-100.00,ENE,75,10.0,23.0,94,0.01,,,1.25,meteohub,2013-01-09 20:56:00,
2013-01-09 14:58:00,55.6,54.0,-100.00,East,82,10.0,23.0,94,0.01,,,1.25,meteohub,2013-01-09 20:58:00,
2013-01-09 14:59:00,55.6,54.0,-100.00,East,89,10.0,23.0,94,0.01,,,1.25,meteohub,2013-01-09 20:59:00,
2013-01-09 15:00:00,55.6,54.0,-100.00,East,97,10.0,23.0,94,0.01,,,1.25,meteohub,2013-01-09 21:00:00,
2013-01-09 15:01:00,55.6,54.0,-100.00,ENE,78,15.0,21.0,94,0.01,,,1.25,meteohub,2013-01-09 21:01:00,
2013-01-09 15:03:00,55.6,54.0,-100.00,East,87,12.0,21.0,94,0.01,,,1.25,meteohub,2013-01-09 21:03:00,
2013-01-09 15:05:00,55.6,54.0,-100.00,ENE,66,13.0,21.0,94,0.01,,,1.25,meteohub,2013-01-09 21:05:00,
2013-01-09 15:06:00,55.6,54.0,-100.00,ENE,66,16.0,20.0,94,0.02,,,1.26,meteohub,2013-01-09 21:06:00,
2013-01-09 15:08:00,55.8,54.1,-100.00,ENE,76,9.0,20.0,94,0.02,,,1.26,meteohub,2013-01-09 21:08:00,
2013-01-09 15:10:00,55.8,54.1,-100.00,ENE,76,12.0,20.0,94,0.02,,,1.26,meteohub,2013-01-09 21:10:00,
2013-01-09 15:11:00,55.8,54.1,-100.00,East,92,10.0,21.0,94,0.01,,,1.26,meteohub,2013-01-09 21:11:00,
2013-01-09 15:15:00,55.8,54.1,-100.00,ENE,67,15.0,21.0,94,0.01,,,1.26,meteohub,2013-01-09 21:15:00,
2013-01-09 15:16:00,55.8,54.1,-100.00,East,86,11.0,21.0,94,0.01,,,1.26,meteohub,2013-01-09 21:16:00,
2013-01-09 15:20:00,55.8,54.1,-100.00,East,100,11.0,18.0,94,0.01,,,1.26,meteohub,2013-01-09 21:20:00,
2013-01-09 15:21:00,55.8,54.1,-100.00,East,94,12.0,18.0,94,0.01,,,1.26,meteohub,2013-01-09 21:21:00,
2013-01-09 15:25:00,55.8,54.1,-100.00,East,92,11.0,19.0,94,0.02,,,1.27,meteohub,2013-01-09 21:25:00,
2013-01-09 15:26:00,55.8,54.1,-100.00,East,98,15.0,19.0,94,0.02,,,1.27,meteohub,2013-01-09 21:26:00,
2013-01-09 15:27:00,55.8,54.1,-100.00,East,101,11.0,19.0,94,0.02,,,1.27,meteohub,2013-01-09 21:27:00,
2013-01-09 15:31:00,55.8,54.1,-100.00,East,85,11.0,19.0,94,0.02,,,1.27,meteohub,2013-01-09 21:31:00,
2013-01-09 15:32:00,55.8,54.1,-100.00,ESE,109,16.0,19.0,94,0.02,,,1.27,meteohub,2013-01-09 21:32:00,
2013-01-09 15:36:00,55.8,54.1,-100.00,East,94,5.0,19.0,94,0.02,,,1.27,meteohub,2013-01-09 21:36:00,
2013-01-09 15:37:00,55.8,54.1,-100.00,East,92,11.0,19.0,94,0.02,,,1.27,meteohub,2013-01-09 21:37:00,
2013-01-09 15:41:00,55.8,54.1,-100.00,East,94,7.0,18.0,94,0.02,,,1.27,meteohub,2013-01-09 21:41:00,
2013-01-09 15:42:00,55.8,54.1,-100.00,East,88,10.0,18.0,94,0.02,,,1.27,meteohub,2013-01-09 21:42:00,
2013-01-09 15:46:00,55.8,54.1,-100.00,East,87,4.0,18.0,94,0.02,,,1.27,meteohub,2013-01-09 21:46:00,
2013-01-09 15:47:00,55.8,54.1,-100.00,East,92,9.0,18.0,94,0.02,,,1.27,meteohub,2013-01-09 21:47:00,
2013-01-09 15:52:00,55.8,54.1,-100.00,East,98,10.0,19.0,94,0.03,,,1.28,meteohub,2013-01-09 21:52:00,
2013-01-09 15:57:00,55.8,54.1,-100.00,East,84,14.0,19.0,94,0.04,,,1.29,meteohub,2013-01-09 21:57:00,
2013-01-09 15:58:00,55.8,54.1,-100.00,East,82,12.0,19.0,94,0.04,,,1.29,meteohub,2013-01-09 21:58:00,
2013-01-09 16:02:00,55.8,54.1,-100.00,East,93,9.0,16.0,94,0.03,,,1.29,meteohub,2013-01-09 22:02:00,
2013-01-09 16:03:00,55.6,54.0,-100.00,East,90,12.0,16.0,94,0.03,,,1.29,meteohub,2013-01-09 22:03:00,
2013-01-09 16:07:00,55.6,54.0,-100.00,East,80,11.0,17.0,94,0.04,,,1.30,meteohub,2013-01-09 22:07:00,
2013-01-09 16:08:00,55.6,54.0,-100.00,East,84,9.0,17.0,94,0.04,,,1.30,meteohub,2013-01-09 22:08:00,
2013-01-09 16:12:00,55.6,54.0,-100.00,East,98,15.0,17.0,94,0.05,,,1.31,meteohub,2013-01-09 22:12:00,
2013-01-09 16:13:00,55.6,54.0,-100.00,East,94,10.0,17.0,94,0.05,,,1.31,meteohub,2013-01-09 22:13:00,
2013-01-09 16:15:00,55.6,54.0,-100.00,East,89,12.0,17.0,94,0.05,,,1.31,meteohub,2013-01-09 22:15:00,
2013-01-09 16:17:00,55.6,54.0,-100.00,East,82,14.0,17.0,94,0.05,,,1.31,meteohub,2013-01-09 22:17:00,
2013-01-09 16:18:00,55.6,54.0,-100.00,East,82,15.0,17.0,94,0.05,,,1.31,meteohub,2013-01-09 22:18:00,
2013-01-09 16:20:00,55.6,54.0,-100.00,East,92,15.0,17.0,94,0.06,,,1.32,meteohub,2013-01-09 22:20:00,
2013-01-09 16:22:00,55.6,54.0,-100.00,ESE,104,12.0,21.0,94,0.06,,,1.32,meteohub,2013-01-09 22:22:00,
2013-01-09 16:23:00,55.6,54.0,-100.00,East,90,12.0,21.0,94,0.06,,,1.32,meteohub,2013-01-09 22:23:00,
2013-01-09 16:25:00,55.6,54.0,-100.00,East,94,13.0,21.0,94,0.05,,,1.32,meteohub,2013-01-09 22:25:00,
2013-01-09 16:27:00,55.6,54.0,-100.00,ENE,67,12.0,21.0,94,0.05,,,1.32,meteohub,2013-01-09 22:27:00,
2013-01-09 16:28:00,55.6,54.0,-100.00,East,87,11.0,21.0,94,0.05,,,1.32,meteohub,2013-01-09 22:28:00,
2013-01-09 16:30:00,55.6,54.0,-100.00,East,82,7.0,21.0,94,0.06,,,1.33,meteohub,2013-01-09 22:30:00,
2013-01-09 16:33:00,55.6,54.0,-100.00,East,90,10.0,21.0,94,0.06,,,1.33,meteohub,2013-01-09 22:33:00,
2013-01-09 16:34:00,55.6,54.0,-100.00,East,93,15.0,21.0,94,0.06,,,1.33,meteohub,2013-01-09 22:34:00,
2013-01-09 16:35:00,55.6,55.0,-100.00,ENE,78,16.0,18.0,98,0.06,,,1.33,meteohub,2013-01-09 22:35:00,
2013-01-09 16:38:00,55.6,54.0,-100.00,East,88,11.0,18.0,94,0.06,,,1.33,meteohub,2013-01-09 22:38:00,
2013-01-09 16:39:00,55.6,54.0,-100.00,ESE,111,14.0,18.0,94,0.06,,,1.33,meteohub,2013-01-09 22:39:00,
2013-01-09 16:41:00,55.4,53.8,-100.00,East,88,13.0,18.0,94,0.07,,,1.34,meteohub,2013-01-09 22:41:00,
2013-01-09 16:43:00,55.4,53.8,-100.00,East,88,10.0,18.0,94,0.07,,,1.34,meteohub,2013-01-09 22:43:00,
2013-01-09 16:44:00,55.4,53.8,-100.00,East,101,13.0,18.0,94,0.07,,,1.34,meteohub,2013-01-09 22:44:00,
2013-01-09 16:47:00,55.4,53.8,-100.00,East,99,15.0,18.0,94,0.06,,,1.34,meteohub,2013-01-09 22:47:00,
2013-01-09 16:49:00,55.4,53.8,-100.00,ESE,116,13.0,18.0,94,0.06,,,1.34,meteohub,2013-01-09 22:49:00,
2013-01-09 16:50:00,55.4,53.8,-100.00,ESE,102,15.0,18.0,94,0.06,,,1.34,meteohub,2013-01-09 22:50:00,
2013-01-09 16:52:00,55.4,53.8,-100.00,East,84,13.0,18.0,94,0.06,,,1.34,meteohub,2013-01-09 22:52:00,
2013-01-09 16:54:00,55.4,53.8,-100.00,East,80,11.0,18.0,94,0.06,,,1.34,meteohub,2013-01-09 22:54:00,
2013-01-09 16:55:00,55.4,54.3,-100.00,East,93,10.0,18.0,96,0.06,,,1.35,meteohub,2013-01-09 22:55:00,
2013-01-09 16:57:00,55.4,53.8,-100.00,East,90,10.0,19.0,94,0.06,,,1.35,meteohub,2013-01-09 22:57:00,
2013-01-09 16:59:00,55.4,53.8,-100.00,East,98,10.0,19.0,94,0.06,,,1.35,meteohub,2013-01-09 22:59:00,
2013-01-09 17:00:00,55.4,53.8,-100.00,East,92,13.0,19.0,94,0.06,,,1.35,meteohub,2013-01-09 23:00:00,
2013-01-09 17:02:00,55.4,53.8,-100.00,East,94,9.0,19.0,94,0.06,,,1.35,meteohub,2013-01-09 23:02:00,
2013-01-09 17:04:00,55.4,53.8,-100.00,East,92,12.0,19.0,94,0.06,,,1.35,meteohub,2013-01-09 23:04:00,
2013-01-09 17:05:00,55.4,53.8,-100.00,East,99,11.0,19.0,94,0.06,,,1.35,meteohub,2013-01-09 23:05:00,
2013-01-09 17:07:00,55.4,53.8,-100.00,East,88,10.0,19.0,94,0.05,,,1.35,meteohub,2013-01-09 23:07:00,
2013-01-09 17:10:00,55.4,53.8,-100.00,ESE,103,12.0,19.0,94,0.05,,,1.35,meteohub,2013-01-09 23:10:00,
2013-01-09 17:11:00,55.4,53.8,-100.00,ENE,78,10.0,18.0,94,0.05,,,1.36,meteohub,2013-01-09 23:11:00,
2013-01-09 17:13:00,55.2,53.6,-100.00,East,98,10.0,18.0,94,0.05,,,1.36,meteohub,2013-01-09 23:13:00,
2013-01-09 17:15:00,55.2,53.6,-100.00,East,96,9.0,18.0,94,0.05,,,1.36,meteohub,2013-01-09 23:15:00,
2013-01-09 17:16:00,55.2,53.6,-100.00,East,85,13.0,18.0,94,0.05,,,1.36,meteohub,2013-01-09 23:16:00,
2013-01-09 17:18:00,55.2,53.6,-100.00,ESE,113,13.0,18.0,94,0.05,,,1.36,meteohub,2013-01-09 23:18:00,
2013-01-09 17:20:00,55.2,53.6,-100.00,East,81,10.0,18.0,94,0.05,,,1.37,meteohub,2013-01-09 23:20:00,
2013-01-09 17:21:00,55.2,53.6,-100.00,East,95,9.0,18.0,94,0.05,,,1.37,meteohub,2013-01-09 23:21:00,
2013-01-09 17:23:00,55.2,53.6,-100.00,ESE,111,16.0,18.0,94,0.05,,,1.37,meteohub,2013-01-09 23:23:00,
2013-01-09 17:25:00,55.2,53.6,-100.00,East,98,10.0,19.0,94,0.05,,,1.37,meteohub,2013-01-09 23:25:00,
2013-01-09 17:26:00,55.2,53.6,-100.00,East,96,14.0,19.0,94,0.05,,,1.37,meteohub,2013-01-09 23:26:00,
2013-01-09 17:28:00,55.2,53.6,-100.00,East,95,12.0,19.0,94,0.05,,,1.37,meteohub,2013-01-09 23:28:00,
2013-01-09 17:31:00,55.2,53.6,-100.00,ESE,103,11.0,19.0,94,0.05,,,1.38,meteohub,2013-01-09 23:31:00,
2013-01-09 17:32:00,55.2,53.6,-100.00,East,91,12.0,19.0,94,0.05,,,1.38,meteohub,2013-01-09 23:32:00,
2013-01-09 17:33:00,55.2,53.6,-100.00,East,89,11.0,19.0,94,0.05,,,1.38,meteohub,2013-01-09 23:33:00,
2013-01-09 17:36:00,55.2,53.6,-100.00,ESE,105,13.0,19.0,94,0.04,,,1.38,meteohub,2013-01-09 23:36:00,
2013-01-09 17:37:00,55.2,53.6,-100.00,East,88,14.0,19.0,94,0.04,,,1.38,meteohub,2013-01-09 23:37:00,
2013-01-09 17:39:00,55.2,53.6,-100.00,East,98,10.0,19.0,94,0.04,,,1.38,meteohub,2013-01-09 23:39:00,
2013-01-09 17:41:00,55.2,53.6,-100.00,ESE,103,10.0,19.0,94,0.05,,,1.39,meteohub,2013-01-09 23:41:00,
2013-01-09 17:42:00,55.2,53.6,-100.00,East,86,12.0,19.0,94,0.05,,,1.39,meteohub,2013-01-09 23:42:00,
2013-01-09 17:44:00,55.2,53.6,-100.00,East,85,12.0,19.0,94,0.05,,,1.39,meteohub,2013-01-09 23:44:00,
2013-01-09 17:46:00,55.2,53.6,-100.00,East,98,11.0,19.0,94,0.05,,,1.39,meteohub,2013-01-09 23:46:00,
2013-01-09 17:47:00,55.2,53.6,-100.00,East,95,16.0,19.0,94,0.05,,,1.39,meteohub,2013-01-09 23:47:00,
2013-01-09 17:49:00,55.2,53.6,-100.00,ENE,67,16.0,19.0,94,0.05,,,1.39,meteohub,2013-01-09 23:49:00,
2013-01-09 17:52:00,55.0,53.4,-100.00,East,86,14.0,18.0,94,0.05,,,1.39,meteohub,2013-01-09 23:52:00,
2013-01-09 17:55:00,55.0,53.4,-100.00,East,80,15.0,18.0,94,0.05,,,1.40,meteohub,2013-01-09 23:55:00,
2013-01-09 17:57:00,55.2,53.8,-100.00,East,86,12.0,21.0,95,0.05,,,1.40,meteohub,2013-01-09 23:57:00,
2013-01-09 18:00:00,55.2,53.8,-100.00,East,84,13.0,21.0,95,0.05,,,1.40,meteohub,2013-01-10 00:00:00,
2013-01-09 18:02:00,55.2,53.6,-100.00,East,80,15.0,22.0,94,0.05,,,1.40,meteohub,2013-01-10 00:02:00,
2013-01-09 18:03:00,55.2,53.6,-100.00,ENE,68,18.0,22.0,94,0.05,,,1.40,meteohub,2013-01-10 00:03:00,
2013-01-09 18:05:00,55.0,53.4,-100.00,East,84,25.0,26.0,94,0.04,,,1.40,meteohub,2013-01-10 00:05:00,
2013-01-09 18:07:00,55.0,53.4,-100.00,ENE,77,16.0,26.0,94,0.04,,,1.40,meteohub,2013-01-10 00:07:00,
2013-01-09 18:08:00,55.0,53.4,-100.00,ENE,73,21.0,26.0,94,0.04,,,1.40,meteohub,2013-01-10 00:08:00,
2013-01-09 18:10:00,55.0,53.4,-100.00,ENE,70,18.0,26.0,94,0.04,,,1.40,meteohub,2013-01-10 00:10:00,
2013-01-09 18:12:00,55.0,53.4,-100.00,East,85,15.0,26.0,94,0.04,,,1.40,meteohub,2013-01-10 00:12:00,
2013-01-09 18:13:00,55.0,53.4,-100.00,ENE,65,16.0,26.0,94,0.04,,,1.40,meteohub,2013-01-10 00:13:00,
2013-01-09 18:16:00,55.0,53.4,-100.00,East,90,22.0,26.0,94,0.03,,,1.40,meteohub,2013-01-10 00:16:00,
2013-01-09 18:18:00,54.9,53.2,-100.00,East,85,23.0,26.0,94,0.03,,,1.40,meteohub,2013-01-10 00:18:00,
2013-01-09 18:19:00,54.9,53.2,-100.00,ENE,75,18.0,26.0,94,0.03,,,1.40,meteohub,2013-01-10 00:19:00,
2013-01-09 18:21:00,54.9,53.2,-100.00,East,96,21.0,30.0,94,0.03,,,1.40,meteohub,2013-01-10 00:21:00,
2013-01-09 18:23:00,54.9,53.2,-100.00,ENE,73,20.0,30.0,94,0.03,,,1.40,meteohub,2013-01-10 00:23:00,
2013-01-09 18:24:00,54.9,53.2,-100.00,East,83,14.0,30.0,94,0.03,,,1.40,meteohub,2013-01-10 00:24:00,
2013-01-09 18:27:00,54.9,53.2,-100.00,ENE,78,23.0,30.0,94,0.03,,,1.40,meteohub,2013-01-10 00:27:00,
2013-01-09 18:28:00,54.9,53.2,-100.00,ENE,69,21.0,30.0,94,0.03,,,1.40,meteohub,2013-01-10 00:28:00,
2013-01-09 18:29:00,54.9,53.2,-100.00,ENE,78,21.0,30.0,94,0.03,,,1.40,meteohub,2013-01-10 00:29:00,
2013-01-09 18:32:00,54.9,53.2,-100.00,East,88,11.0,30.0,94,0.03,,,1.41,meteohub,2013-01-10 00:32:00,
2013-01-09 18:34:00,54.9,53.2,-100.00,East,89,15.0,30.0,94,0.03,,,1.41,meteohub,2013-01-10 00:34:00,
2013-01-09 18:37:00,54.9,53.2,-100.00,ESE,105,13.0,30.0,94,0.03,,,1.41,meteohub,2013-01-10 00:37:00,
2013-01-09 18:39:00,54.9,53.2,-100.00,ENE,76,15.0,30.0,94,0.03,,,1.41,meteohub,2013-01-10 00:39:00,
2013-01-09 18:40:00,54.9,53.2,-100.00,ENE,78,15.0,30.0,94,0.03,,,1.41,meteohub,2013-01-10 00:40:00,
2013-01-09 18:42:00,54.9,53.2,-100.00,East,88,12.0,30.0,94,0.02,,,1.41,meteohub,2013-01-10 00:42:00,
2013-01-09 18:44:00,54.7,53.1,-100.00,East,79,17.0,30.0,94,0.02,,,1.41,meteohub,2013-01-10 00:44:00,
2013-01-09 18:45:00,54.7,53.1,-100.00,ENE,74,17.0,30.0,94,0.02,,,1.41,meteohub,2013-01-10 00:45:00,
2013-01-09 18:46:00,54.7,53.1,-100.00,East,92,17.0,25.0,94,0.02,,,1.41,meteohub,2013-01-10 00:46:00,
2013-01-09 18:48:00,54.7,53.1,-100.00,East,91,17.0,25.0,94,0.02,,,1.41,meteohub,2013-01-10 00:48:00,
2013-01-09 18:50:00,54.7,53.1,-100.00,ESE,105,14.0,25.0,94,0.02,,,1.41,meteohub,2013-01-10 00:50:00,
2013-01-09 18:51:00,54.7,53.1,-100.00,East,82,15.0,24.0,94,0.02,,,1.41,meteohub,2013-01-10 00:51:00,
2013-01-09 18:53:00,54.7,53.1,-100.00,East,79,11.0,24.0,94,0.02,,,1.41,meteohub,2013-01-10 00:53:00,
2013-01-09 18:55:00,54.7,53.1,-100.00,East,100,17.0,24.0,94,0.02,,,1.41,meteohub,2013-01-10 00:55:00,
2013-01-09 18:57:00,54.7,53.1,-100.00,ENE,77,13.0,25.0,94,0.01,,,1.41,meteohub,2013-01-10 00:57:00,
2013-01-09 18:59:00,54.7,53.1,-100.00,East,101,16.0,25.0,94,0.01,,,1.41,meteohub,2013-01-10 00:59:00,
2013-01-09 19:00:00,54.7,53.1,-100.00,ESE,106,16.0,25.0,94,0.01,,,1.41,meteohub,2013-01-10 01:00:00,
2013-01-09 19:01:00,54.7,53.1,-100.00,East,87,19.0,25.0,94,0.01,,,1.41,meteohub,2013-01-10 01:01:00,
2013-01-09 19:02:00,54.7,53.1,-100.00,East,94,15.0,25.0,94,0.01,,,1.41,meteohub,2013-01-10 01:02:00,
2013-01-09 19:04:00,54.7,53.1,-100.00,ESE,105,12.0,25.0,94,0.01,,,1.41,meteohub,2013-01-10 01:04:00,
2013-01-09 19:05:00,54.7,53.1,-100.00,ESE,115,15.0,25.0,94,0.01,,,1.41,meteohub,2013-01-10 01:05:00,
2013-01-09 19:06:00,54.7,53.1,-100.00,East,86,22.0,25.0,94,0.01,,,1.41,meteohub,2013-01-10 01:06:00,
2013-01-09 19:08:00,54.7,53.1,-100.00,ENE,74,14.0,25.0,94,0.01,,,1.41,meteohub,2013-01-10 01:08:00,
2013-01-09 19:10:00,54.7,53.1,-100.00,East,80,16.0,25.0,94,0.01,,,1.41,meteohub,2013-01-10 01:10:00,
2013-01-09 19:11:00,54.7,53.1,-100.00,East,94,15.0,25.0,94,0.01,,,1.41,meteohub,2013-01-10 01:11:00,
2013-01-09 19:13:00,54.7,53.1,-100.00,East,90,14.0,25.0,94,0.01,,,1.41,meteohub,2013-01-10 01:13:00,
2013-01-09 19:15:00,54.7,52.7,-100.00,East,88,16.0,25.0,93,0.01,,,1.41,meteohub,2013-01-10 01:15:00,
2013-01-09 19:16:00,54.7,52.7,-100.00,East,87,10.0,24.0,93,0.01,,,1.41,meteohub,2013-01-10 01:16:00,
2013-01-09 19:19:00,54.7,52.7,-100.00,East,79,13.0,24.0,93,0.01,,,1.41,meteohub,2013-01-10 01:19:00,
2013-01-09 19:20:00,54.7,52.7,-100.00,East,86,18.0,24.0,93,0.01,,,1.41,meteohub,2013-01-10 01:20:00,
2013-01-09 19:22:00,54.9,52.9,-100.00,East,100,12.0,25.0,93,0.01,,,1.41,meteohub,2013-01-10 01:22:00,
2013-01-09 19:24:00,54.9,52.9,-100.00,East,89,16.0,25.0,93,0.01,,,1.41,meteohub,2013-01-10 01:24:00,
2013-01-09 19:25:00,54.9,52.9,-100.00,ESE,111,14.0,25.0,93,0.01,,,1.41,meteohub,2013-01-10 01:25:00,
2013-01-09 19:27:00,54.9,52.9,-100.00,East,95,13.0,25.0,93,0.01,,,1.41,meteohub,2013-01-10 01:27:00,
2013-01-09 19:29:00,54.9,52.9,-100.00,East,82,13.0,25.0,93,0.01,,,1.41,meteohub,2013-01-10 01:29:00,
2013-01-09 19:30:00,54.9,52.9,-100.00,East,91,13.0,24.0,93,0.00,,,1.41,meteohub,2013-01-10 01:30:00,
2013-01-09 19:31:00,54.9,52.9,-100.00,ESE,105,15.0,24.0,93,0.00,,,1.41,meteohub,2013-01-10 01:31:00,
2013-01-09 19:32:00,54.9,52.9,-100.00,East,88,14.0,24.0,93,0.00,,,1.41,meteohub,2013-01-10 01:32:00,
2013-01-09 19:34:00,54.9,52.9,-100.00,ESE,107,16.0,24.0,93,0.00,,,1.41,meteohub,2013-01-10 01:34:00,
2013-01-09 19:36:00,54.9,52.9,-100.00,East,98,15.0,24.0,93,0.00,,,1.41,meteohub,2013-01-10 01:36:00,
2013-01-09 19:37:00,54.9,52.9,-100.00,ESE,104,7.0,24.0,93,0.00,,,1.41,meteohub,2013-01-10 01:37:00,
2013-01-09 19:40:00,54.9,52.9,-100.00,ESE,106,12.0,24.0,93,0.00,,,1.41,meteohub,2013-01-10 01:40:00,
2013-01-09 19:41:00,54.9,52.9,-100.00,ESE,111,18.0,23.0,93,0.00,,,1.41,meteohub,2013-01-10 01:41:00,
2013-01-09 19:42:00,54.9,52.9,-100.00,East,101,17.0,23.0,93,0.00,,,1.41,meteohub,2013-01-10 01:42:00,
2013-01-09 19:45:00,54.9,52.9,-100.00,East,87,10.0,23.0,93,0.00,,,1.41,meteohub,2013-01-10 01:45:00,
2013-01-09 19:46:00,54.9,52.9,-100.00,East,82,13.0,23.0,93,0.00,,,1.41,meteohub,2013-01-10 01:46:00,
2013-01-09 19:47:00,54.9,52.9,-100.00,East,86,14.0,23.0,93,0.00,,,1.41,meteohub,2013-01-10 01:47:00,
2013-01-09 19:50:00,55.0,53.1,-100.00,East,98,20.0,26.0,93,0.00,,,1.41,meteohub,2013-01-10 01:50:00,
2013-01-09 19:51:00,55.0,53.1,-100.00,ENE,76,15.0,26.0,93,0.00,,,1.41,meteohub,2013-01-10 01:51:00,
2013-01-09 19:52:00,55.0,53.1,-100.00,East,88,17.0,26.0,93,0.00,,,1.41,meteohub,2013-01-10 01:52:00,
2013-01-09 19:53:00,55.0,53.1,-100.00,ESE,102,18.0,26.0,93,0.00,,,1.41,meteohub,2013-01-10 01:53:00,
2013-01-09 19:55:00,55.0,53.1,-100.00,ESE,108,14.0,26.0,93,0.00,,,1.41,meteohub,2013-01-10 01:55:00,
2013-01-09 19:56:00,55.0,53.1,-100.00,ESE,105,20.0,26.0,93,0.00,,,1.41,meteohub,2013-01-10 01:56:00,
2013-01-09 19:57:00,55.0,53.1,-100.00,East,84,14.0,26.0,93,0.00,,,1.41,meteohub,2013-01-10 01:57:00,
2013-01-09 19:58:00,55.0,53.1,-100.00,ENE,78,15.0,26.0,93,0.00,,,1.41,meteohub,2013-01-10 01:58:00,
2013-01-09 20:00:00,55.0,53.1,-100.00,East,89,11.0,27.0,93,0.00,,,1.41,meteohub,2013-01-10 02:00:00,
2013-01-09 20:02:00,55.0,53.1,-100.00,ENE,70,19.0,27.0,93,0.00,,,1.41,meteohub,2013-01-10 02:02:00,
2013-01-09 20:03:00,55.0,53.1,-100.00,East,98,23.0,27.0,93,0.00,,,1.41,meteohub,2013-01-10 02:03:00,
2013-01-09 20:05:00,55.0,52.7,-100.00,East,90,14.0,27.0,92,0.00,,,1.41,meteohub,2013-01-10 02:05:00,
2013-01-09 20:07:00,55.0,52.7,-100.00,East,89,19.0,27.0,92,0.00,,,1.41,meteohub,2013-01-10 02:07:00,
2013-01-09 20:08:00,55.0,52.7,-100.00,East,101,17.0,27.0,92,0.00,,,1.41,meteohub,2013-01-10 02:08:00,
2013-01-09 20:11:00,55.0,52.7,-100.00,East,89,11.0,26.0,92,0.00,,,1.41,meteohub,2013-01-10 02:11:00,
2013-01-09 20:12:00,55.0,52.7,-100.00,ESE,103,15.0,26.0,92,0.00,,,1.41,meteohub,2013-01-10 02:12:00,
2013-01-09 20:13:00,55.0,52.7,-100.00,East,94,9.0,26.0,92,0.00,,,1.41,meteohub,2013-01-10 02:13:00,
2013-01-09 20:16:00,55.2,52.9,-100.00,ESE,113,9.0,26.0,92,0.00,,,1.41,meteohub,2013-01-10 02:16:00,
2013-01-09 20:17:00,55.2,52.9,-100.00,ESE,111,8.0,26.0,92,0.00,,,1.41,meteohub,2013-01-10 02:17:00,
2013-01-09 20:18:00,55.2,52.9,-100.00,ESE,115,4.0,26.0,92,0.00,,,1.41,meteohub,2013-01-10 02:18:00,
2013-01-09 20:21:00,55.2,52.9,-100.00,ESE,120,13.0,22.0,92,0.00,,,1.41,meteohub,2013-01-10 02:21:00,
2013-01-09 20:22:00,55.2,52.9,-100.00,ESE,118,13.0,22.0,92,0.00,,,1.41,meteohub,2013-01-10 02:22:00,
2013-01-09 20:23:00,55.2,52.9,-100.00,ESE,115,13.0,22.0,92,0.00,,,1.41,meteohub,2013-01-10 02:23:00,
2013-01-09 20:26:00,55.2,52.9,-100.00,ESE,113,6.0,19.0,92,0.00,,,1.41,meteohub,2013-01-10 02:26:00,
2013-01-09 20:27:00,55.2,52.9,-100.00,ESE,109,5.0,19.0,92,0.00,,,1.41,meteohub,2013-01-10 02:27:00,
2013-01-09 20:28:00,55.2,52.9,-100.00,ESE,118,9.0,19.0,92,0.00,,,1.41,meteohub,2013-01-10 02:28:00,
2013-01-09 20:29:00,55.2,52.9,-100.00,ESE,114,15.0,19.0,92,0.00,,,1.41,meteohub,2013-01-10 02:29:00,
2013-01-09 20:32:00,55.4,53.1,-100.00,East,95,10.0,16.0,92,0.00,,,1.41,meteohub,2013-01-10 02:32:00,
2013-01-09 20:33:00,55.4,53.1,-100.00,ESE,103,12.0,16.0,92,0.00,,,1.41,meteohub,2013-01-10 02:33:00,
2013-01-09 20:34:00,55.4,53.1,-100.00,ESE,108,10.0,16.0,92,0.00,,,1.41,meteohub,2013-01-10 02:34:00,
2013-01-09 20:37:00,55.4,53.1,-100.00,ESE,108,6.0,19.0,92,0.00,,,1.41,meteohub,2013-01-10 02:37:00,
2013-01-09 20:38:00,55.4,53.1,-100.00,ESE,106,6.0,19.0,92,0.00,,,1.41,meteohub,2013-01-10 02:38:00,
2013-01-09 20:39:00,55.4,53.1,-100.00,East,94,6.0,19.0,92,0.00,,,1.41,meteohub,2013-01-10 02:39:00,
2013-01-09 20:40:00,55.6,53.2,-100.00,East,98,4.0,19.0,92,0.00,,,1.41,meteohub,2013-01-10 02:40:00,
2013-01-09 20:42:00,55.6,53.6,-100.00,East,89,6.0,19.0,93,0.00,,,1.41,meteohub,2013-01-10 02:42:00,
2013-01-09 20:43:00,55.4,53.1,-100.00,ENE,78,9.0,19.0,92,0.00,,,1.41,meteohub,2013-01-10 02:43:00,
2013-01-09 20:44:00,55.6,53.2,-100.00,East,84,6.0,19.0,92,0.00,,,1.41,meteohub,2013-01-10 02:44:00,
2013-01-09 20:45:00,55.6,53.2,-100.00,East,80,9.0,19.0,92,0.00,,,1.41,meteohub,2013-01-10 02:45:00,
2013-01-09 20:47:00,55.4,53.4,-100.00,East,84,11.0,14.0,93,0.00,,,1.41,meteohub,2013-01-10 02:47:00,
2013-01-09 20:48:00,55.4,53.1,-100.00,East,91,7.0,14.0,92,0.00,,,1.41,meteohub,2013-01-10 02:48:00,
2013-01-09 20:49:00,55.4,53.1,-100.00,East,86,7.0,14.0,92,0.00,,,1.41,meteohub,2013-01-10 02:49:00,
2013-01-09 20:50:00,55.6,53.6,-100.00,East,86,9.0,14.0,93,0.00,,,1.41,meteohub,2013-01-10 02:50:00,
2013-01-09 20:52:00,55.6,53.6,-100.00,ESE,104,9.0,14.0,93,0.00,,,1.41,meteohub,2013-01-10 02:52:00,
2013-01-09 20:54:00,55.6,53.6,-100.00,ESE,109,6.0,14.0,93,0.00,,,1.41,meteohub,2013-01-10 02:54:00,
2013-01-09 20:55:00,55.6,53.6,-100.00,ESE,109,7.0,13.0,93,0.00,,,1.41,meteohub,2013-01-10 02:55:00,
2013-01-09 20:57:00,55.6,53.6,-100.00,East,86,7.0,13.0,93,0.00,,,1.41,meteohub,2013-01-10 02:57:00,
2013-01-09 20:59:00,55.6,53.6,-100.00,ESE,114,5.0,13.0,93,0.00,,,1.41,meteohub,2013-01-10 02:59:00,
2013-01-09 21:00:00,55.6,53.6,-100.00,ESE,105,5.0,13.0,93,0.00,,,1.41,meteohub,2013-01-10 03:00:00,
2013-01-09 21:02:00,55.6,53.6,-100.00,ESE,107,5.0,13.0,93,0.00,,,1.41,meteohub,2013-01-10 03:02:00,
2013-01-09 21:04:00,55.6,53.6,-100.00,ESE,117,6.0,13.0,93,0.00,,,1.41,meteohub,2013-01-10 03:04:00,
2013-01-09 21:05:00,55.6,53.6,-100.00,ESE,111,5.0,12.0,93,0.00,,,1.41,meteohub,2013-01-10 03:05:00,
2013-01-09 21:07:00,55.6,53.6,-100.00,ESE,109,6.0,12.0,93,0.00,,,1.41,meteohub,2013-01-10 03:07:00,
2013-01-09 21:09:00,55.6,53.6,-100.00,ESE,117,7.0,12.0,93,0.00,,,1.41,meteohub,2013-01-10 03:09:00,
2013-01-09 21:10:00,55.6,53.6,-100.00,ESE,117,4.0,12.0,93,0.00,,,1.41,meteohub,2013-01-10 03:10:00,
2013-01-09 21:12:00,55.6,53.6,-100.00,SE,125,4.0,12.0,93,0.00,,,1.41,meteohub,2013-01-10 03:12:00,
2013-01-09 21:15:00,55.6,53.6,-100.00,SE,138,8.0,12.0,93,0.00,,,1.41,meteohub,2013-01-10 03:15:00,
2013-01-09 21:18:00,55.8,53.8,-100.00,SE,127,12.0,12.0,93,0.00,,,1.41,meteohub,2013-01-10 03:18:00,
2013-01-09 21:20:00,55.8,53.8,-100.00,ESE,120,16.0,16.0,93,0.00,,,1.41,meteohub,2013-01-10 03:20:00,
2013-01-09 21:21:00,55.8,53.8,-100.00,SE,129,14.0,24.0,93,0.00,,,1.41,meteohub,2013-01-10 03:21:00,
2013-01-09 21:23:00,55.6,53.6,-100.00,SE,133,14.0,24.0,93,0.00,,,1.41,meteohub,2013-01-10 03:23:00,
2013-01-09 21:25:00,55.6,53.6,-100.00,SE,135,16.0,24.0,93,0.00,,,1.41,meteohub,2013-01-10 03:25:00,
2013-01-09 21:26:00,55.4,53.4,-100.00,SE,130,10.0,24.0,93,0.00,,,1.41,meteohub,2013-01-10 03:26:00,
2013-01-09 21:28:00,55.4,53.4,-100.00,SE,128,9.0,24.0,93,0.00,,,1.41,meteohub,2013-01-10 03:28:00,
2013-01-09 21:30:00,55.2,53.2,-100.00,ESE,118,7.0,24.0,93,0.00,,,1.41,meteohub,2013-01-10 03:30:00,
2013-01-09 21:31:00,55.2,53.2,-100.00,SE,124,6.0,24.0,93,0.00,,,1.41,meteohub,2013-01-10 03:31:00,
2013-01-09 21:33:00,55.2,53.2,-100.00,SE,136,7.0,24.0,93,0.00,,,1.41,meteohub,2013-01-10 03:33:00,
2013-01-09 21:36:00,55.2,53.2,-100.00,SE,130,9.0,19.0,93,0.00,,,1.41,meteohub,2013-01-10 03:36:00,
2013-01-09 21:37:00,55.2,53.2,-100.00,SE,133,5.0,19.0,93,0.00,,,1.41,meteohub,2013-01-10 03:37:00,
2013-01-09 21:38:00,55.2,53.2,-100.00,SE,134,6.0,19.0,93,0.00,,,1.41,meteohub,2013-01-10 03:38:00,
2013-01-09 21:41:00,55.2,53.2,-100.00,SE,135,5.0,17.0,93,0.00,,,1.41,meteohub,2013-01-10 03:41:00,
2013-01-09 21:42:00,55.2,53.2,-100.00,SE,134,4.0,17.0,93,0.00,,,1.41,meteohub,2013-01-10 03:42:00,
2013-01-09 21:44:00,55.2,53.2,-100.00,SE,131,4.0,17.0,93,0.00,,,1.41,meteohub,2013-01-10 03:44:00,
2013-01-09 21:46:00,55.2,53.2,-100.00,SE,130,4.0,13.0,93,0.00,,,1.41,meteohub,2013-01-10 03:46:00,
2013-01-09 21:47:00,55.2,53.2,-100.00,SE,130,4.0,13.0,93,0.00,,,1.41,meteohub,2013-01-10 03:47:00,
2013-01-09 21:49:00,55.2,53.2,-100.00,SE,128,9.0,13.0,93,0.00,,,1.41,meteohub,2013-01-10 03:49:00,
2013-01-09 21:51:00,55.2,53.2,-100.00,SE,127,5.0,12.0,93,0.00,,,1.41,meteohub,2013-01-10 03:51:00,
2013-01-09 21:52:00,55.4,53.4,-100.00,SE,125,6.0,12.0,93,0.00,,,1.41,meteohub,2013-01-10 03:52:00,
2013-01-09 21:53:00,55.4,53.4,-100.00,SE,124,4.0,12.0,93,0.00,,,1.41,meteohub,2013-01-10 03:53:00,
2013-01-09 21:54:00,55.4,53.4,-100.00,SE,126,6.0,12.0,93,0.00,,,1.41,meteohub,2013-01-10 03:54:00,
2013-01-09 21:56:00,55.4,53.4,-100.00,SE,126,6.0,11.0,93,0.00,,,1.41,meteohub,2013-01-10 03:56:00,
2013-01-09 21:57:00,55.4,53.4,-100.00,SE,126,6.0,11.0,93,0.00,,,1.41,meteohub,2013-01-10 03:57:00,
2013-01-09 21:58:00,55.4,53.4,-100.00,SE,124,6.0,11.0,93,0.00,,,1.41,meteohub,2013-01-10 03:58:00,
2013-01-09 21:59:00,55.4,53.4,-100.00,ESE,121,6.0,11.0,93,0.00,,,1.41,meteohub,2013-01-10 03:59:00,
2013-01-09 22:01:00,55.4,53.4,-100.00,ESE,121,6.0,11.0,93,0.00,,,1.41,meteohub,2013-01-10 04:01:00,
2013-01-09 22:02:00,55.4,53.4,-100.00,ESE,121,4.0,11.0,93,0.00,,,1.41,meteohub,2013-01-10 04:02:00,
2013-01-09 22:03:00,55.4,53.4,-100.00,ESE,121,5.0,11.0,93,0.00,,,1.41,meteohub,2013-01-10 04:03:00,
2013-01-09 22:04:00,55.4,53.4,-100.00,ESE,110,6.0,11.0,93,0.00,,,1.41,meteohub,2013-01-10 04:04:00,
2013-01-09 22:06:00,55.6,54.0,-100.00,ESE,111,4.0,8.0,94,0.00,,,1.41,meteohub,2013-01-10 04:06:00,
2013-01-09 22:08:00,55.6,54.0,-100.00,East,99,5.0,8.0,94,0.00,,,1.41,meteohub,2013-01-10 04:08:00,
2013-01-09 22:09:00,55.6,54.0,-100.00,ESE,102,6.0,8.0,94,0.00,,,1.41,meteohub,2013-01-10 04:09:00,
2013-01-09 22:11:00,55.6,54.0,-100.00,ESE,102,5.0,11.0,94,0.01,,,1.42,meteohub,2013-01-10 04:11:00,
2013-01-09 22:13:00,55.4,53.8,-100.00,ESE,103,5.0,11.0,94,0.01,,,1.42,meteohub,2013-01-10 04:13:00,
2013-01-09 22:14:00,55.4,53.8,-100.00,ESE,107,5.0,11.0,94,0.01,,,1.42,meteohub,2013-01-10 04:14:00,
2013-01-09 22:16:00,55.4,53.8,-100.00,ESE,104,5.0,11.0,94,0.01,,,1.42,meteohub,2013-01-10 04:16:00,
2013-01-09 22:18:00,55.4,53.8,-100.00,ESE,105,5.0,11.0,94,0.01,,,1.42,meteohub,2013-01-10 04:18:00,
2013-01-09 22:19:00,55.4,53.8,-100.00,ESE,105,4.0,11.0,94,0.01,,,1.42,meteohub,2013-01-10 04:19:00,
2013-01-09 22:21:00,55.4,53.8,-100.00,East,81,9.0,11.0,94,0.01,,,1.42,meteohub,2013-01-10 04:21:00,
2013-01-09 22:22:00,55.4,53.1,-100.00,East,84,10.0,11.0,92,0.01,,,1.42,meteohub,2013-01-10 04:22:00,
2013-01-09 22:23:00,55.4,53.8,-100.00,East,88,7.0,11.0,94,0.01,,,1.42,meteohub,2013-01-10 04:23:00,
2013-01-09 22:24:00,55.2,53.6,-100.00,East,87,6.0,11.0,94,0.01,,,1.42,meteohub,2013-01-10 04:24:00,
2013-01-09 22:26:00,55.2,53.6,-100.00,East,90,6.0,11.0,94,0.01,,,1.42,meteohub,2013-01-10 04:26:00,
2013-01-09 22:27:00,55.2,53.6,-100.00,East,88,7.0,11.0,94,0.01,,,1.42,meteohub,2013-01-10 04:27:00,
2013-01-09 22:28:00,55.2,53.6,-100.00,East,96,10.0,11.0,94,0.01,,,1.42,meteohub,2013-01-10 04:28:00,
2013-01-09 22:29:00,55.2,53.6,-100.00,East,95,7.0,11.0,94,0.01,,,1.42,meteohub,2013-01-10 04:29:00,
2013-01-09 22:31:00,55.2,53.6,-100.00,East,92,9.0,12.0,94,0.01,,,1.42,meteohub,2013-01-10 04:31:00,
2013-01-09 22:32:00,55.2,53.6,-100.00,East,88,11.0,12.0,94,0.01,,,1.42,meteohub,2013-01-10 04:32:00,
2013-01-09 22:33:00,55.2,53.6,-100.00,East,91,6.0,12.0,94,0.01,,,1.42,meteohub,2013-01-10 04:33:00,
2013-01-09 22:34:00,55.0,53.4,-100.00,East,92,5.0,12.0,94,0.01,,,1.42,meteohub,2013-01-10 04:34:00,
2013-01-09 22:36:00,55.0,53.4,-100.00,East,96,9.0,12.0,94,0.01,,,1.42,meteohub,2013-01-10 04:36:00,
2013-01-09 22:37:00,55.0,53.4,-100.00,East,98,7.0,12.0,94,0.01,,,1.42,meteohub,2013-01-10 04:37:00,
2013-01-09 22:38:00,55.0,53.4,-100.00,East,92,5.0,12.0,94,0.01,,,1.42,meteohub,2013-01-10 04:38:00,
2013-01-09 22:40:00,55.0,53.4,-100.00,East,87,7.0,12.0,94,0.01,,,1.42,meteohub,2013-01-10 04:40:00,
2013-01-09 22:41:00,55.0,53.4,-100.00,East,86,9.0,11.0,94,0.01,,,1.42,meteohub,2013-01-10 04:41:00,
2013-01-09 22:43:00,55.0,53.4,-100.00,East,92,7.0,11.0,94,0.01,,,1.42,meteohub,2013-01-10 04:43:00,
2013-01-09 22:45:00,55.0,53.4,-100.00,East,88,6.0,11.0,94,0.01,,,1.42,meteohub,2013-01-10 04:45:00,
2013-01-09 22:46:00,55.0,53.4,-100.00,East,89,9.0,14.0,94,0.01,,,1.42,meteohub,2013-01-10 04:46:00,
2013-01-09 22:48:00,55.0,53.4,-100.00,East,87,5.0,14.0,94,0.01,,,1.42,meteohub,2013-01-10 04:48:00,
2013-01-09 22:49:00,55.0,53.4,-100.00,East,84,14.0,14.0,94,0.01,,,1.42,meteohub,2013-01-10 04:49:00,
2013-01-09 22:50:00,55.0,53.4,-100.00,East,86,9.0,14.0,94,0.01,,,1.42,meteohub,2013-01-10 04:50:00,
2013-01-09 22:52:00,55.0,53.4,-100.00,East,81,10.0,14.0,94,0.01,,,1.42,meteohub,2013-01-10 04:52:00,
2013-01-09 22:53:00,55.0,53.4,-100.00,East,81,8.0,14.0,94,0.01,,,1.42,meteohub,2013-01-10 04:53:00,
2013-01-09 22:54:00,55.0,53.4,-100.00,East,79,7.0,14.0,94,0.01,,,1.42,meteohub,2013-01-10 04:54:00,
2013-01-09 22:56:00,55.0,53.4,-100.00,East,82,8.0,14.0,94,0.01,,,1.42,meteohub,2013-01-10 04:56:00,
2013-01-09 22:57:00,55.0,53.4,-100.00,East,83,13.0,14.0,94,0.01,,,1.42,meteohub,2013-01-10 04:57:00,
2013-01-09 22:58:00,55.0,53.4,-100.00,East,83,9.0,14.0,94,0.01,,,1.42,meteohub,2013-01-10 04:58:00,
2013-01-09 22:59:00,55.0,53.4,-100.00,East,82,9.0,14.0,94,0.01,,,1.42,meteohub,2013-01-10 04:59:00,
2013-01-09 23:00:00,55.0,53.4,-100.00,East,82,7.0,14.0,94,0.01,,,1.42,meteohub,2013-01-10 05:00:00,
2013-01-09 23:01:00,55.0,53.4,-100.00,East,90,8.0,15.0,94,0.01,,,1.42,meteohub,2013-01-10 05:01:00,
2013-01-09 23:05:00,55.0,53.4,-100.00,ENE,73,12.0,15.0,94,0.00,,,1.42,meteohub,2013-01-10 05:05:00,
2013-01-09 23:06:00,55.0,53.4,-100.00,ENE,70,13.0,15.0,94,0.00,,,1.42,meteohub,2013-01-10 05:06:00,
2013-01-09 23:10:00,55.0,53.6,-100.00,ESE,108,12.0,16.0,95,0.00,,,1.42,meteohub,2013-01-10 05:10:00,
2013-01-09 23:11:00,55.0,53.6,-100.00,East,84,9.0,16.0,95,0.00,,,1.42,meteohub,2013-01-10 05:11:00,
2013-01-09 23:12:00,55.0,53.6,-100.00,East,86,11.0,16.0,95,0.00,,,1.42,meteohub,2013-01-10 05:12:00,
2013-01-09 23:15:00,55.0,53.6,-100.00,East,89,10.0,16.0,95,0.00,,,1.42,meteohub,2013-01-10 05:15:00,
2013-01-09 23:16:00,55.0,53.6,-100.00,East,87,6.0,16.0,95,0.00,,,1.42,meteohub,2013-01-10 05:16:00,
2013-01-09 23:17:00,55.0,53.6,-100.00,East,100,10.0,16.0,95,0.00,,,1.42,meteohub,2013-01-10 05:17:00,
2013-01-09 23:21:00,55.0,53.6,-100.00,East,96,12.0,16.0,95,0.00,,,1.42,meteohub,2013-01-10 05:21:00,
2013-01-09 23:22:00,55.0,53.6,-100.00,East,89,6.0,16.0,95,0.00,,,1.42,meteohub,2013-01-10 05:22:00,
2013-01-09 23:23:00,55.0,53.6,-100.00,ESE,103,9.0,16.0,95,0.00,,,1.42,meteohub,2013-01-10 05:23:00,
2013-01-09 23:26:00,55.0,53.6,-100.00,East,90,12.0,15.0,95,0.00,,,1.42,meteohub,2013-01-10 05:26:00,
2013-01-09 23:27:00,55.0,53.6,-100.00,East,81,11.0,15.0,95,0.00,,,1.42,meteohub,2013-01-10 05:27:00,
2013-01-09 23:28:00,55.0,53.6,-100.00,East,86,11.0,15.0,95,0.00,,,1.42,meteohub,2013-01-10 05:28:00,
2013-01-09 23:31:00,55.0,53.6,-100.00,East,88,11.0,15.0,95,0.00,,,1.42,meteohub,2013-01-10 05:31:00,
2013-01-09 23:32:00,55.0,53.6,-100.00,East,88,6.0,15.0,95,0.00,,,1.42,meteohub,2013-01-10 05:32:00,
2013-01-09 23:33:00,55.0,53.6,-100.00,East,89,5.0,15.0,95,0.00,,,1.42,meteohub,2013-01-10 05:33:00,
2013-01-09 23:36:00,55.0,53.6,-100.00,East,90,10.0,15.0,95,0.00,,,1.42,meteohub,2013-01-10 05:36:00,
2013-01-09 23:37:00,55.0,53.6,-100.00,East,92,10.0,15.0,95,0.00,,,1.42,meteohub,2013-01-10 05:37:00,
2013-01-09 23:38:00,55.0,53.6,-100.00,East,90,10.0,15.0,95,0.00,,,1.42,meteohub,2013-01-10 05:38:00,
2013-01-09 23:41:00,55.0,53.6,-100.00,East,94,6.0,15.0,95,0.00,,,1.42,meteohub,2013-01-10 05:41:00,
2013-01-09 23:42:00,55.0,53.6,-100.00,East,94,10.0,15.0,95,0.00,,,1.42,meteohub,2013-01-10 05:42:00,
2013-01-09 23:43:00,55.0,53.6,-100.00,ESE,103,9.0,15.0,95,0.00,,,1.42,meteohub,2013-01-10 05:43:00,
2013-01-09 23:46:00,55.0,53.6,-100.00,East,99,13.0,15.0,95,0.00,,,1.42,meteohub,2013-01-10 05:46:00,
2013-01-09 23:47:00,55.0,53.6,-100.00,East,101,11.0,15.0,95,0.00,,,1.42,meteohub,2013-01-10 05:47:00,
2013-01-09 23:48:00,55.0,53.6,-100.00,East,97,12.0,15.0,95,0.00,,,1.42,meteohub,2013-01-10 05:48:00,
2013-01-09 23:49:00,55.0,53.6,-100.00,East,95,12.0,15.0,95,0.00,,,1.42,meteohub,2013-01-10 05:49:00,
2013-01-09 23:51:00,55.0,53.6,-100.00,East,87,10.0,15.0,95,0.00,,,1.42,meteohub,2013-01-10 05:51:00,
2013-01-09 23:52:00,55.0,53.6,-100.00,East,94,12.0,15.0,95,0.00,,,1.42,meteohub,2013-01-10 05:52:00,
2013-01-09 23:53:00,55.0,53.6,-100.00,East,94,7.0,15.0,95,0.00,,,1.42,meteohub,2013-01-10 05:53:00,
2013-01-09 23:54:00,55.0,53.6,-100.00,East,86,13.0,15.0,95,0.00,,,1.42,meteohub,2013-01-10 05:54:00,
2013-01-09 23:56:00,55.0,53.6,-100.00,East,93,7.0,17.0,95,0.00,,,1.42,meteohub,2013-01-10 05:56:00,
2013-01-09 23:57:00,55.0,53.6,-100.00,East,91,11.0,17.0,95,0.00,,,1.42,meteohub,2013-01-10 05:57:00,
2013-01-09 23:58:00,55.0,53.6,-100.00,East,86,14.0,17.0,95,0.00,,,1.42,meteohub,2013-01-10 05:58:00,
2013-01-09 23:59:00,55.0,53.6,-100.00,East,100,11.0,17.0,95,0.00,,,1.42,meteohub,2013-01-10 05:59:00,